<?xml version="1.0" encoding="UTF-8" standalone="no" ?>
<gpx xmlns="http://www.topografix.com/GPX/1/1" xmlns:xsi="http://www.w3.org/2001/XMLSchema-instance" xsi:schemaLocation="http://www.topografix.com/GPX/1/1 http://www.topografix.com/GPX/1/1/gpx.xsd" version="1.1" creator="VisuGPX - https://www.visugpx.com">
  <metadata>
    <name>Le trou du Rat et la ferme des Mayorques</name>
    <desc><![CDATA[Balade au départ du trou du Rat vers la ferme des Mayorques en passant par le vallon de la peine.]]></desc>
  </metadata>
  <trk>
    <name><![CDATA[2017-02-27 13:51:11]]></name>
    <trkseg>
      <trkpt lat="43.78502" lon="5.13192">
        <ele>561.55</ele>
        <time>2017-02-27T08:33:36Z</time>
      </trkpt>
      <trkpt lat="43.78503" lon="5.13191">
        <ele>561.55</ele>
        <time>2017-02-27T08:33:37Z</time>
      </trkpt>
      <trkpt lat="43.78504" lon="5.13188">
        <ele>470.7</ele>
        <time>2017-02-27T08:33:40Z</time>
      </trkpt>
      <trkpt lat="43.78504" lon="5.13187">
        <ele>470.7</ele>
        <time>2017-02-27T08:33:41Z</time>
      </trkpt>
      <trkpt lat="43.78547" lon="5.13137">
        <ele>470.22</ele>
        <time>2017-02-27T08:34:05Z</time>
      </trkpt>
      <trkpt lat="43.78554" lon="5.13128">
        <ele>469.74</ele>
        <time>2017-02-27T08:34:18Z</time>
      </trkpt>
      <trkpt lat="43.78567" lon="5.13127">
        <ele>468.78</ele>
        <time>2017-02-27T08:34:39Z</time>
      </trkpt>
      <trkpt lat="43.78569" lon="5.13127">
        <ele>467.34</ele>
        <time>2017-02-27T08:35:05Z</time>
      </trkpt>
      <trkpt lat="43.78567" lon="5.1313">
        <ele>465.9</ele>
        <time>2017-02-27T08:35:23Z</time>
      </trkpt>
      <trkpt lat="43.78567" lon="5.13129">
        <ele>464.45</ele>
        <time>2017-02-27T08:35:50Z</time>
      </trkpt>
      <trkpt lat="43.78567" lon="5.13133">
        <ele>463.01</ele>
        <time>2017-02-27T08:36:09Z</time>
      </trkpt>
      <trkpt lat="43.78567" lon="5.13133">
        <ele>462.05</ele>
        <time>2017-02-27T08:36:29Z</time>
      </trkpt>
      <trkpt lat="43.78565" lon="5.13133">
        <ele>461.09</ele>
        <time>2017-02-27T08:36:47Z</time>
      </trkpt>
      <trkpt lat="43.78565" lon="5.13135">
        <ele>460.13</ele>
        <time>2017-02-27T08:37:09Z</time>
      </trkpt>
      <trkpt lat="43.78558" lon="5.13142">
        <ele>459.17</ele>
        <time>2017-02-27T08:37:23Z</time>
      </trkpt>
      <trkpt lat="43.78556" lon="5.13145">
        <ele>457.72</ele>
        <time>2017-02-27T08:37:27Z</time>
      </trkpt>
      <trkpt lat="43.78548" lon="5.13154">
        <ele>456.28</ele>
        <time>2017-02-27T08:37:40Z</time>
      </trkpt>
      <trkpt lat="43.78539" lon="5.13166">
        <ele>454.84</ele>
        <time>2017-02-27T08:37:58Z</time>
      </trkpt>
      <trkpt lat="43.78531" lon="5.13179">
        <ele>453.88</ele>
        <time>2017-02-27T08:38:14Z</time>
      </trkpt>
      <trkpt lat="43.78517" lon="5.13191">
        <ele>451.96</ele>
        <time>2017-02-27T08:38:33Z</time>
      </trkpt>
      <trkpt lat="43.78513" lon="5.13194">
        <ele>451.96</ele>
        <time>2017-02-27T08:38:38Z</time>
      </trkpt>
      <trkpt lat="43.78493" lon="5.13206">
        <ele>450.03</ele>
        <time>2017-02-27T08:38:55Z</time>
      </trkpt>
      <trkpt lat="43.78476" lon="5.13215">
        <ele>448.11</ele>
        <time>2017-02-27T08:39:15Z</time>
      </trkpt>
      <trkpt lat="43.78473" lon="5.13218">
        <ele>448.11</ele>
        <time>2017-02-27T08:39:19Z</time>
      </trkpt>
      <trkpt lat="43.78458" lon="5.13238">
        <ele>446.67</ele>
        <time>2017-02-27T08:39:39Z</time>
      </trkpt>
      <trkpt lat="43.78443" lon="5.13253">
        <ele>445.71</ele>
        <time>2017-02-27T08:39:57Z</time>
      </trkpt>
      <trkpt lat="43.78427" lon="5.13266">
        <ele>444.75</ele>
        <time>2017-02-27T08:40:15Z</time>
      </trkpt>
      <trkpt lat="43.78411" lon="5.13282">
        <ele>445.71</ele>
        <time>2017-02-27T08:40:33Z</time>
      </trkpt>
      <trkpt lat="43.78397" lon="5.133">
        <ele>444.75</ele>
        <time>2017-02-27T08:40:51Z</time>
      </trkpt>
      <trkpt lat="43.78382" lon="5.13316">
        <ele>443.31</ele>
        <time>2017-02-27T08:41:10Z</time>
      </trkpt>
      <trkpt lat="43.78368" lon="5.13329">
        <ele>442.82</ele>
        <time>2017-02-27T08:41:28Z</time>
      </trkpt>
      <trkpt lat="43.78354" lon="5.13342">
        <ele>441.38</ele>
        <time>2017-02-27T08:41:44Z</time>
      </trkpt>
      <trkpt lat="43.78341" lon="5.13354">
        <ele>440.42</ele>
        <time>2017-02-27T08:42:00Z</time>
      </trkpt>
      <trkpt lat="43.78326" lon="5.13369">
        <ele>439.46</ele>
        <time>2017-02-27T08:42:18Z</time>
      </trkpt>
      <trkpt lat="43.78313" lon="5.13381">
        <ele>440.9</ele>
        <time>2017-02-27T08:42:32Z</time>
      </trkpt>
      <trkpt lat="43.783" lon="5.13392">
        <ele>438.5</ele>
        <time>2017-02-27T08:42:47Z</time>
      </trkpt>
      <trkpt lat="43.78283" lon="5.13396">
        <ele>438.02</ele>
        <time>2017-02-27T08:43:05Z</time>
      </trkpt>
      <trkpt lat="43.78269" lon="5.13407">
        <ele>436.1</ele>
        <time>2017-02-27T08:43:23Z</time>
      </trkpt>
      <trkpt lat="43.78265" lon="5.13424">
        <ele>434.65</ele>
        <time>2017-02-27T08:43:39Z</time>
      </trkpt>
      <trkpt lat="43.78264" lon="5.13425">
        <ele>435.61</ele>
        <time>2017-02-27T08:43:42Z</time>
      </trkpt>
      <trkpt lat="43.78263" lon="5.13427">
        <ele>434.17</ele>
        <time>2017-02-27T08:43:48Z</time>
      </trkpt>
      <trkpt lat="43.78267" lon="5.13442">
        <ele>432.73</ele>
        <time>2017-02-27T08:44:03Z</time>
      </trkpt>
      <trkpt lat="43.78271" lon="5.13457">
        <ele>431.29</ele>
        <time>2017-02-27T08:44:19Z</time>
      </trkpt>
      <trkpt lat="43.7828" lon="5.13476">
        <ele>428.89</ele>
        <time>2017-02-27T08:44:38Z</time>
      </trkpt>
      <trkpt lat="43.78288" lon="5.13491">
        <ele>426</ele>
        <time>2017-02-27T08:44:55Z</time>
      </trkpt>
      <trkpt lat="43.78293" lon="5.13508">
        <ele>425.04</ele>
        <time>2017-02-27T08:45:13Z</time>
      </trkpt>
      <trkpt lat="43.78296" lon="5.13514">
        <ele>424.56</ele>
        <time>2017-02-27T08:45:19Z</time>
      </trkpt>
      <trkpt lat="43.78304" lon="5.13539">
        <ele>422.16</ele>
        <time>2017-02-27T08:45:39Z</time>
      </trkpt>
      <trkpt lat="43.78311" lon="5.13561">
        <ele>420.71</ele>
        <time>2017-02-27T08:45:56Z</time>
      </trkpt>
      <trkpt lat="43.78314" lon="5.13581">
        <ele>419.27</ele>
        <time>2017-02-27T08:46:11Z</time>
      </trkpt>
      <trkpt lat="43.78323" lon="5.13596">
        <ele>417.83</ele>
        <time>2017-02-27T08:46:27Z</time>
      </trkpt>
      <trkpt lat="43.78339" lon="5.13604">
        <ele>415.43</ele>
        <time>2017-02-27T08:46:45Z</time>
      </trkpt>
      <trkpt lat="43.78352" lon="5.13599">
        <ele>414.47</ele>
        <time>2017-02-27T08:47:02Z</time>
      </trkpt>
      <trkpt lat="43.78373" lon="5.13599">
        <ele>412.06</ele>
        <time>2017-02-27T08:47:21Z</time>
      </trkpt>
      <trkpt lat="43.78392" lon="5.13607">
        <ele>411.1</ele>
        <time>2017-02-27T08:47:40Z</time>
      </trkpt>
      <trkpt lat="43.78393" lon="5.13608">
        <ele>411.1</ele>
        <time>2017-02-27T08:47:41Z</time>
      </trkpt>
      <trkpt lat="43.78409" lon="5.13621">
        <ele>407.74</ele>
        <time>2017-02-27T08:47:58Z</time>
      </trkpt>
      <trkpt lat="43.78425" lon="5.13638">
        <ele>407.26</ele>
        <time>2017-02-27T08:48:17Z</time>
      </trkpt>
      <trkpt lat="43.78443" lon="5.13638">
        <ele>405.33</ele>
        <time>2017-02-27T08:48:36Z</time>
      </trkpt>
      <trkpt lat="43.78466" lon="5.13624">
        <ele>402.93</ele>
        <time>2017-02-27T08:48:59Z</time>
      </trkpt>
      <trkpt lat="43.7848" lon="5.13633">
        <ele>401.97</ele>
        <time>2017-02-27T08:49:15Z</time>
      </trkpt>
      <trkpt lat="43.78498" lon="5.13652">
        <ele>400.53</ele>
        <time>2017-02-27T08:49:36Z</time>
      </trkpt>
      <trkpt lat="43.78515" lon="5.13658">
        <ele>399.08</ele>
        <time>2017-02-27T08:49:54Z</time>
      </trkpt>
      <trkpt lat="43.78525" lon="5.13652">
        <ele>398.6</ele>
        <time>2017-02-27T08:50:04Z</time>
      </trkpt>
      <trkpt lat="43.78547" lon="5.13644">
        <ele>398.12</ele>
        <time>2017-02-27T08:50:23Z</time>
      </trkpt>
      <trkpt lat="43.78564" lon="5.1364">
        <ele>395.72</ele>
        <time>2017-02-27T08:50:41Z</time>
      </trkpt>
      <trkpt lat="43.78584" lon="5.13628">
        <ele>394.28</ele>
        <time>2017-02-27T08:51:02Z</time>
      </trkpt>
      <trkpt lat="43.78597" lon="5.13619">
        <ele>393.32</ele>
        <time>2017-02-27T08:51:14Z</time>
      </trkpt>
      <trkpt lat="43.78618" lon="5.13608">
        <ele>391.39</ele>
        <time>2017-02-27T08:51:34Z</time>
      </trkpt>
      <trkpt lat="43.78642" lon="5.13605">
        <ele>389.95</ele>
        <time>2017-02-27T08:51:56Z</time>
      </trkpt>
      <trkpt lat="43.78652" lon="5.13606">
        <ele>389.47</ele>
        <time>2017-02-27T08:52:06Z</time>
      </trkpt>
      <trkpt lat="43.7867" lon="5.13624">
        <ele>387.55</ele>
        <time>2017-02-27T08:52:27Z</time>
      </trkpt>
      <trkpt lat="43.78689" lon="5.13634">
        <ele>386.59</ele>
        <time>2017-02-27T08:52:47Z</time>
      </trkpt>
      <trkpt lat="43.78712" lon="5.13638">
        <ele>385.15</ele>
        <time>2017-02-27T08:53:08Z</time>
      </trkpt>
      <trkpt lat="43.78734" lon="5.13625">
        <ele>383.7</ele>
        <time>2017-02-27T08:53:27Z</time>
      </trkpt>
      <trkpt lat="43.78744" lon="5.13623">
        <ele>382.26</ele>
        <time>2017-02-27T08:53:40Z</time>
      </trkpt>
      <trkpt lat="43.78743" lon="5.13643">
        <ele>380.34</ele>
        <time>2017-02-27T08:53:56Z</time>
      </trkpt>
      <trkpt lat="43.78728" lon="5.13656">
        <ele>377.94</ele>
        <time>2017-02-27T08:54:14Z</time>
      </trkpt>
      <trkpt lat="43.7871" lon="5.13663">
        <ele>375.53</ele>
        <time>2017-02-27T08:54:33Z</time>
      </trkpt>
      <trkpt lat="43.78693" lon="5.13665">
        <ele>373.13</ele>
        <time>2017-02-27T08:54:51Z</time>
      </trkpt>
      <trkpt lat="43.7869" lon="5.13665">
        <ele>373.13</ele>
        <time>2017-02-27T08:54:54Z</time>
      </trkpt>
      <trkpt lat="43.7867" lon="5.1366">
        <ele>371.21</ele>
        <time>2017-02-27T08:55:10Z</time>
      </trkpt>
      <trkpt lat="43.78662" lon="5.13656">
        <ele>370.73</ele>
        <time>2017-02-27T08:55:18Z</time>
      </trkpt>
      <trkpt lat="43.78648" lon="5.13643">
        <ele>368.32</ele>
        <time>2017-02-27T08:55:36Z</time>
      </trkpt>
      <trkpt lat="43.7863" lon="5.13641">
        <ele>366.4</ele>
        <time>2017-02-27T08:55:55Z</time>
      </trkpt>
      <trkpt lat="43.78624" lon="5.13644">
        <ele>365.92</ele>
        <time>2017-02-27T08:56:02Z</time>
      </trkpt>
      <trkpt lat="43.7861" lon="5.13656">
        <ele>364.48</ele>
        <time>2017-02-27T08:56:19Z</time>
      </trkpt>
      <trkpt lat="43.78595" lon="5.13669">
        <ele>362.55</ele>
        <time>2017-02-27T08:56:37Z</time>
      </trkpt>
      <trkpt lat="43.78577" lon="5.13688">
        <ele>360.15</ele>
        <time>2017-02-27T08:56:56Z</time>
      </trkpt>
      <trkpt lat="43.7856" lon="5.13695">
        <ele>359.19</ele>
        <time>2017-02-27T08:57:13Z</time>
      </trkpt>
      <trkpt lat="43.78544" lon="5.13707">
        <ele>357.75</ele>
        <time>2017-02-27T08:57:31Z</time>
      </trkpt>
      <trkpt lat="43.7853" lon="5.13729">
        <ele>355.83</ele>
        <time>2017-02-27T08:57:50Z</time>
      </trkpt>
      <trkpt lat="43.78513" lon="5.13742">
        <ele>354.38</ele>
        <time>2017-02-27T08:58:07Z</time>
      </trkpt>
      <trkpt lat="43.78496" lon="5.13747">
        <ele>352.46</ele>
        <time>2017-02-27T08:58:25Z</time>
      </trkpt>
      <trkpt lat="43.78479" lon="5.13738">
        <ele>351.5</ele>
        <time>2017-02-27T08:58:42Z</time>
      </trkpt>
      <trkpt lat="43.78463" lon="5.13732">
        <ele>349.58</ele>
        <time>2017-02-27T08:59:01Z</time>
      </trkpt>
      <trkpt lat="43.78452" lon="5.13743">
        <ele>347.65</ele>
        <time>2017-02-27T08:59:16Z</time>
      </trkpt>
      <trkpt lat="43.78437" lon="5.13751">
        <ele>345.73</ele>
        <time>2017-02-27T08:59:33Z</time>
      </trkpt>
      <trkpt lat="43.78426" lon="5.13754">
        <ele>345.25</ele>
        <time>2017-02-27T08:59:42Z</time>
      </trkpt>
      <trkpt lat="43.78407" lon="5.13751">
        <ele>342.85</ele>
        <time>2017-02-27T09:00:01Z</time>
      </trkpt>
      <trkpt lat="43.78396" lon="5.1375">
        <ele>342.37</ele>
        <time>2017-02-27T09:00:16Z</time>
      </trkpt>
      <trkpt lat="43.78382" lon="5.1374">
        <ele>340.92</ele>
        <time>2017-02-27T09:00:32Z</time>
      </trkpt>
      <trkpt lat="43.78364" lon="5.13736">
        <ele>339</ele>
        <time>2017-02-27T09:00:51Z</time>
      </trkpt>
      <trkpt lat="43.78361" lon="5.13738">
        <ele>339</ele>
        <time>2017-02-27T09:00:55Z</time>
      </trkpt>
      <trkpt lat="43.78348" lon="5.13761">
        <ele>335.64</ele>
        <time>2017-02-27T09:01:13Z</time>
      </trkpt>
      <trkpt lat="43.78347" lon="5.13763">
        <ele>335.64</ele>
        <time>2017-02-27T09:01:14Z</time>
      </trkpt>
      <trkpt lat="43.78334" lon="5.13772">
        <ele>334.68</ele>
        <time>2017-02-27T09:01:29Z</time>
      </trkpt>
      <trkpt lat="43.78313" lon="5.13773">
        <ele>332.75</ele>
        <time>2017-02-27T09:01:49Z</time>
      </trkpt>
      <trkpt lat="43.78299" lon="5.13778">
        <ele>330.83</ele>
        <time>2017-02-27T09:02:04Z</time>
      </trkpt>
      <trkpt lat="43.78281" lon="5.13781">
        <ele>329.39</ele>
        <time>2017-02-27T09:02:20Z</time>
      </trkpt>
      <trkpt lat="43.78262" lon="5.13776">
        <ele>327.95</ele>
        <time>2017-02-27T09:02:39Z</time>
      </trkpt>
      <trkpt lat="43.78242" lon="5.13772">
        <ele>326.99</ele>
        <time>2017-02-27T09:02:58Z</time>
      </trkpt>
      <trkpt lat="43.78224" lon="5.13773">
        <ele>326.02</ele>
        <time>2017-02-27T09:03:14Z</time>
      </trkpt>
      <trkpt lat="43.78214" lon="5.13783">
        <ele>325.54</ele>
        <time>2017-02-27T09:03:28Z</time>
      </trkpt>
      <trkpt lat="43.78211" lon="5.13786">
        <ele>325.54</ele>
        <time>2017-02-27T09:03:32Z</time>
      </trkpt>
      <trkpt lat="43.78202" lon="5.13812">
        <ele>323.62</ele>
        <time>2017-02-27T09:03:51Z</time>
      </trkpt>
      <trkpt lat="43.78199" lon="5.13833">
        <ele>321.7</ele>
        <time>2017-02-27T09:04:07Z</time>
      </trkpt>
      <trkpt lat="43.7819" lon="5.13857">
        <ele>320.26</ele>
        <time>2017-02-27T09:04:24Z</time>
      </trkpt>
      <trkpt lat="43.78172" lon="5.13871">
        <ele>318.33</ele>
        <time>2017-02-27T09:04:43Z</time>
      </trkpt>
      <trkpt lat="43.78162" lon="5.1388">
        <ele>316.89</ele>
        <time>2017-02-27T09:04:57Z</time>
      </trkpt>
      <trkpt lat="43.78153" lon="5.13865">
        <ele>315.45</ele>
        <time>2017-02-27T09:05:13Z</time>
      </trkpt>
      <trkpt lat="43.78146" lon="5.13856">
        <ele>314.01</ele>
        <time>2017-02-27T09:05:28Z</time>
      </trkpt>
      <trkpt lat="43.78141" lon="5.13835">
        <ele>313.05</ele>
        <time>2017-02-27T09:05:44Z</time>
      </trkpt>
      <trkpt lat="43.78129" lon="5.13815">
        <ele>312.57</ele>
        <time>2017-02-27T09:06:01Z</time>
      </trkpt>
      <trkpt lat="43.78128" lon="5.13813">
        <ele>312.57</ele>
        <time>2017-02-27T09:06:03Z</time>
      </trkpt>
      <trkpt lat="43.78117" lon="5.13798">
        <ele>311.6</ele>
        <time>2017-02-27T09:06:20Z</time>
      </trkpt>
      <trkpt lat="43.78104" lon="5.13779">
        <ele>310.16</ele>
        <time>2017-02-27T09:06:39Z</time>
      </trkpt>
      <trkpt lat="43.78095" lon="5.1376">
        <ele>307.76</ele>
        <time>2017-02-27T09:06:56Z</time>
      </trkpt>
      <trkpt lat="43.78094" lon="5.13758">
        <ele>307.76</ele>
        <time>2017-02-27T09:06:58Z</time>
      </trkpt>
      <trkpt lat="43.78082" lon="5.13742">
        <ele>306.32</ele>
        <time>2017-02-27T09:07:16Z</time>
      </trkpt>
      <trkpt lat="43.78074" lon="5.13739">
        <ele>306.32</ele>
        <time>2017-02-27T09:07:24Z</time>
      </trkpt>
      <trkpt lat="43.78052" lon="5.13735">
        <ele>305.36</ele>
        <time>2017-02-27T09:07:42Z</time>
      </trkpt>
      <trkpt lat="43.78036" lon="5.13725">
        <ele>303.91</ele>
        <time>2017-02-27T09:08:00Z</time>
      </trkpt>
      <trkpt lat="43.78032" lon="5.1371">
        <ele>302.47</ele>
        <time>2017-02-27T09:08:16Z</time>
      </trkpt>
      <trkpt lat="43.7803" lon="5.1369">
        <ele>301.51</ele>
        <time>2017-02-27T09:08:32Z</time>
      </trkpt>
      <trkpt lat="43.78021" lon="5.13667">
        <ele>300.07</ele>
        <time>2017-02-27T09:08:49Z</time>
      </trkpt>
      <trkpt lat="43.78015" lon="5.13659">
        <ele>299.59</ele>
        <time>2017-02-27T09:08:57Z</time>
      </trkpt>
      <trkpt lat="43.78001" lon="5.13647">
        <ele>298.15</ele>
        <time>2017-02-27T09:09:13Z</time>
      </trkpt>
      <trkpt lat="43.7799" lon="5.13637">
        <ele>296.7</ele>
        <time>2017-02-27T09:09:28Z</time>
      </trkpt>
      <trkpt lat="43.77979" lon="5.13629">
        <ele>295.74</ele>
        <time>2017-02-27T09:09:41Z</time>
      </trkpt>
      <trkpt lat="43.77966" lon="5.13616">
        <ele>294.78</ele>
        <time>2017-02-27T09:09:55Z</time>
      </trkpt>
      <trkpt lat="43.77955" lon="5.13615">
        <ele>292.86</ele>
        <time>2017-02-27T09:10:10Z</time>
      </trkpt>
      <trkpt lat="43.77945" lon="5.13632">
        <ele>291.42</ele>
        <time>2017-02-27T09:10:21Z</time>
      </trkpt>
      <trkpt lat="43.77944" lon="5.13644">
        <ele>289.97</ele>
        <time>2017-02-27T09:10:37Z</time>
      </trkpt>
      <trkpt lat="43.77933" lon="5.13666">
        <ele>288.53</ele>
        <time>2017-02-27T09:10:50Z</time>
      </trkpt>
      <trkpt lat="43.77931" lon="5.13673">
        <ele>286.61</ele>
        <time>2017-02-27T09:11:05Z</time>
      </trkpt>
      <trkpt lat="43.77923" lon="5.13669">
        <ele>284.21</ele>
        <time>2017-02-27T09:11:20Z</time>
      </trkpt>
      <trkpt lat="43.77918" lon="5.13663">
        <ele>282.77</ele>
        <time>2017-02-27T09:11:33Z</time>
      </trkpt>
      <trkpt lat="43.77912" lon="5.13663">
        <ele>281.32</ele>
        <time>2017-02-27T09:11:48Z</time>
      </trkpt>
      <trkpt lat="43.77905" lon="5.13662">
        <ele>280.84</ele>
        <time>2017-02-27T09:11:53Z</time>
      </trkpt>
      <trkpt lat="43.77891" lon="5.13664">
        <ele>278.92</ele>
        <time>2017-02-27T09:12:06Z</time>
      </trkpt>
      <trkpt lat="43.77885" lon="5.13656">
        <ele>276.52</ele>
        <time>2017-02-27T09:12:20Z</time>
      </trkpt>
      <trkpt lat="43.77878" lon="5.13647">
        <ele>275.07</ele>
        <time>2017-02-27T09:12:35Z</time>
      </trkpt>
      <trkpt lat="43.7787" lon="5.13632">
        <ele>273.15</ele>
        <time>2017-02-27T09:12:51Z</time>
      </trkpt>
      <trkpt lat="43.77863" lon="5.13619">
        <ele>270.75</ele>
        <time>2017-02-27T09:13:05Z</time>
      </trkpt>
      <trkpt lat="43.77855" lon="5.13611">
        <ele>269.79</ele>
        <time>2017-02-27T09:13:18Z</time>
      </trkpt>
      <trkpt lat="43.77839" lon="5.13598">
        <ele>268.35</ele>
        <time>2017-02-27T09:13:33Z</time>
      </trkpt>
      <trkpt lat="43.77827" lon="5.13599">
        <ele>266.42</ele>
        <time>2017-02-27T09:13:49Z</time>
      </trkpt>
      <trkpt lat="43.77826" lon="5.13601">
        <ele>265.94</ele>
        <time>2017-02-27T09:14:10Z</time>
      </trkpt>
      <trkpt lat="43.77826" lon="5.13604">
        <ele>265.46</ele>
        <time>2017-02-27T09:14:33Z</time>
      </trkpt>
      <trkpt lat="43.77822" lon="5.13606">
        <ele>264.98</ele>
        <time>2017-02-27T09:14:56Z</time>
      </trkpt>
      <trkpt lat="43.77828" lon="5.13611">
        <ele>264.5</ele>
        <time>2017-02-27T09:15:12Z</time>
      </trkpt>
      <trkpt lat="43.7783" lon="5.13613">
        <ele>264.5</ele>
        <time>2017-02-27T09:15:36Z</time>
      </trkpt>
      <trkpt lat="43.7783" lon="5.1361">
        <ele>264.02</ele>
        <time>2017-02-27T09:16:00Z</time>
      </trkpt>
      <trkpt lat="43.77829" lon="5.13604">
        <ele>263.54</ele>
        <time>2017-02-27T09:16:25Z</time>
      </trkpt>
      <trkpt lat="43.77823" lon="5.13597">
        <ele>262.58</ele>
        <time>2017-02-27T09:16:42Z</time>
      </trkpt>
      <trkpt lat="43.77822" lon="5.13605">
        <ele>262.58</ele>
        <time>2017-02-27T09:17:03Z</time>
      </trkpt>
      <trkpt lat="43.77824" lon="5.13608">
        <ele>262.1</ele>
        <time>2017-02-27T09:17:21Z</time>
      </trkpt>
      <trkpt lat="43.77823" lon="5.13614">
        <ele>262.1</ele>
        <time>2017-02-27T09:17:41Z</time>
      </trkpt>
      <trkpt lat="43.77828" lon="5.1361">
        <ele>261.62</ele>
        <time>2017-02-27T09:18:13Z</time>
      </trkpt>
      <trkpt lat="43.77823" lon="5.1361">
        <ele>260.65</ele>
        <time>2017-02-27T09:18:44Z</time>
      </trkpt>
      <trkpt lat="43.77818" lon="5.13608">
        <ele>260.17</ele>
        <time>2017-02-27T09:19:11Z</time>
      </trkpt>
      <trkpt lat="43.7782" lon="5.13603">
        <ele>259.69</ele>
        <time>2017-02-27T09:19:37Z</time>
      </trkpt>
      <trkpt lat="43.77817" lon="5.13607">
        <ele>261.14</ele>
        <time>2017-02-27T09:20:07Z</time>
      </trkpt>
      <trkpt lat="43.77822" lon="5.1361">
        <ele>260.65</ele>
        <time>2017-02-27T09:20:31Z</time>
      </trkpt>
      <trkpt lat="43.77825" lon="5.13609">
        <ele>260.65</ele>
        <time>2017-02-27T09:20:52Z</time>
      </trkpt>
      <trkpt lat="43.77825" lon="5.13609">
        <ele>260.17</ele>
        <time>2017-02-27T09:21:18Z</time>
      </trkpt>
      <trkpt lat="43.77826" lon="5.1361">
        <ele>259.21</ele>
        <time>2017-02-27T09:21:42Z</time>
      </trkpt>
      <trkpt lat="43.77828" lon="5.13608">
        <ele>259.21</ele>
        <time>2017-02-27T09:22:04Z</time>
      </trkpt>
      <trkpt lat="43.77826" lon="5.13609">
        <ele>258.73</ele>
        <time>2017-02-27T09:22:25Z</time>
      </trkpt>
      <trkpt lat="43.77818" lon="5.13606">
        <ele>258.73</ele>
        <time>2017-02-27T09:23:02Z</time>
      </trkpt>
      <trkpt lat="43.7782" lon="5.13601">
        <ele>259.21</ele>
        <time>2017-02-27T09:23:30Z</time>
      </trkpt>
      <trkpt lat="43.77824" lon="5.13602">
        <ele>259.21</ele>
        <time>2017-02-27T09:24:01Z</time>
      </trkpt>
      <trkpt lat="43.77825" lon="5.13601">
        <ele>259.21</ele>
        <time>2017-02-27T09:24:31Z</time>
      </trkpt>
      <trkpt lat="43.77823" lon="5.13594">
        <ele>259.69</ele>
        <time>2017-02-27T09:25:00Z</time>
      </trkpt>
      <trkpt lat="43.77822" lon="5.13602">
        <ele>259.69</ele>
        <time>2017-02-27T09:25:32Z</time>
      </trkpt>
      <trkpt lat="43.77819" lon="5.13601">
        <ele>259.69</ele>
        <time>2017-02-27T09:25:59Z</time>
      </trkpt>
      <trkpt lat="43.77822" lon="5.13606">
        <ele>260.17</ele>
        <time>2017-02-27T09:26:26Z</time>
      </trkpt>
      <trkpt lat="43.77826" lon="5.13606">
        <ele>260.17</ele>
        <time>2017-02-27T09:26:55Z</time>
      </trkpt>
      <trkpt lat="43.77827" lon="5.13608">
        <ele>260.17</ele>
        <time>2017-02-27T09:27:22Z</time>
      </trkpt>
      <trkpt lat="43.77822" lon="5.13607">
        <ele>259.69</ele>
        <time>2017-02-27T09:27:52Z</time>
      </trkpt>
      <trkpt lat="43.77822" lon="5.13607">
        <ele>260.65</ele>
        <time>2017-02-27T09:28:25Z</time>
      </trkpt>
      <trkpt lat="43.77823" lon="5.13605">
        <ele>260.65</ele>
        <time>2017-02-27T09:28:55Z</time>
      </trkpt>
      <trkpt lat="43.77823" lon="5.13606">
        <ele>260.65</ele>
        <time>2017-02-27T09:29:22Z</time>
      </trkpt>
      <trkpt lat="43.77819" lon="5.13602">
        <ele>260.65</ele>
        <time>2017-02-27T09:29:37Z</time>
      </trkpt>
      <trkpt lat="43.77819" lon="5.136">
        <ele>259.21</ele>
        <time>2017-02-27T09:29:55Z</time>
      </trkpt>
      <trkpt lat="43.77823" lon="5.13603">
        <ele>259.21</ele>
        <time>2017-02-27T09:30:13Z</time>
      </trkpt>
      <trkpt lat="43.77825" lon="5.13609">
        <ele>259.21</ele>
        <time>2017-02-27T09:30:36Z</time>
      </trkpt>
      <trkpt lat="43.77825" lon="5.13612">
        <ele>260.17</ele>
        <time>2017-02-27T09:31:04Z</time>
      </trkpt>
      <trkpt lat="43.77821" lon="5.13607">
        <ele>259.69</ele>
        <time>2017-02-27T09:31:34Z</time>
      </trkpt>
      <trkpt lat="43.77821" lon="5.13599">
        <ele>259.69</ele>
        <time>2017-02-27T09:32:02Z</time>
      </trkpt>
      <trkpt lat="43.7782" lon="5.13601">
        <ele>259.69</ele>
        <time>2017-02-27T09:32:24Z</time>
      </trkpt>
      <trkpt lat="43.7782" lon="5.13601">
        <ele>259.21</ele>
        <time>2017-02-27T09:32:47Z</time>
      </trkpt>
      <trkpt lat="43.77817" lon="5.136">
        <ele>259.21</ele>
        <time>2017-02-27T09:33:07Z</time>
      </trkpt>
      <trkpt lat="43.7781" lon="5.13606">
        <ele>258.25</ele>
        <time>2017-02-27T09:33:25Z</time>
      </trkpt>
      <trkpt lat="43.77799" lon="5.13617">
        <ele>257.29</ele>
        <time>2017-02-27T09:33:43Z</time>
      </trkpt>
      <trkpt lat="43.77786" lon="5.13619">
        <ele>256.33</ele>
        <time>2017-02-27T09:33:58Z</time>
      </trkpt>
      <trkpt lat="43.77774" lon="5.13613">
        <ele>255.37</ele>
        <time>2017-02-27T09:34:15Z</time>
      </trkpt>
      <trkpt lat="43.77765" lon="5.13611">
        <ele>253.93</ele>
        <time>2017-02-27T09:34:28Z</time>
      </trkpt>
      <trkpt lat="43.77752" lon="5.13611">
        <ele>252.48</ele>
        <time>2017-02-27T09:34:43Z</time>
      </trkpt>
      <trkpt lat="43.77736" lon="5.13617">
        <ele>251.04</ele>
        <time>2017-02-27T09:35:00Z</time>
      </trkpt>
      <trkpt lat="43.77721" lon="5.13614">
        <ele>249.12</ele>
        <time>2017-02-27T09:35:16Z</time>
      </trkpt>
      <trkpt lat="43.77709" lon="5.13615">
        <ele>247.2</ele>
        <time>2017-02-27T09:35:33Z</time>
      </trkpt>
      <trkpt lat="43.777" lon="5.13618">
        <ele>245.75</ele>
        <time>2017-02-27T09:35:47Z</time>
      </trkpt>
      <trkpt lat="43.77684" lon="5.13618">
        <ele>243.35</ele>
        <time>2017-02-27T09:36:05Z</time>
      </trkpt>
      <trkpt lat="43.77672" lon="5.13614">
        <ele>242.39</ele>
        <time>2017-02-27T09:36:21Z</time>
      </trkpt>
      <trkpt lat="43.7766" lon="5.13613">
        <ele>240.95</ele>
        <time>2017-02-27T09:36:35Z</time>
      </trkpt>
      <trkpt lat="43.77649" lon="5.13611">
        <ele>239.51</ele>
        <time>2017-02-27T09:36:52Z</time>
      </trkpt>
      <trkpt lat="43.77641" lon="5.13612">
        <ele>239.02</ele>
        <time>2017-02-27T09:37:07Z</time>
      </trkpt>
      <trkpt lat="43.77641" lon="5.13614">
        <ele>238.54</ele>
        <time>2017-02-27T09:37:32Z</time>
      </trkpt>
      <trkpt lat="43.77641" lon="5.13611">
        <ele>238.54</ele>
        <time>2017-02-27T09:37:54Z</time>
      </trkpt>
      <trkpt lat="43.77641" lon="5.13607">
        <ele>238.06</ele>
        <time>2017-02-27T09:38:16Z</time>
      </trkpt>
      <trkpt lat="43.77639" lon="5.13606">
        <ele>238.06</ele>
        <time>2017-02-27T09:38:32Z</time>
      </trkpt>
      <trkpt lat="43.7764" lon="5.13607">
        <ele>237.58</ele>
        <time>2017-02-27T09:39:03Z</time>
      </trkpt>
      <trkpt lat="43.77636" lon="5.13605">
        <ele>237.58</ele>
        <time>2017-02-27T09:39:19Z</time>
      </trkpt>
      <trkpt lat="43.77632" lon="5.136">
        <ele>237.1</ele>
        <time>2017-02-27T09:39:55Z</time>
      </trkpt>
      <trkpt lat="43.77622" lon="5.13601">
        <ele>235.66</ele>
        <time>2017-02-27T09:40:10Z</time>
      </trkpt>
      <trkpt lat="43.77616" lon="5.13593">
        <ele>234.22</ele>
        <time>2017-02-27T09:40:24Z</time>
      </trkpt>
      <trkpt lat="43.7761" lon="5.13587">
        <ele>233.26</ele>
        <time>2017-02-27T09:40:35Z</time>
      </trkpt>
      <trkpt lat="43.77602" lon="5.13582">
        <ele>231.81</ele>
        <time>2017-02-27T09:40:47Z</time>
      </trkpt>
      <trkpt lat="43.77595" lon="5.13589">
        <ele>230.85</ele>
        <time>2017-02-27T09:40:59Z</time>
      </trkpt>
      <trkpt lat="43.77583" lon="5.13583">
        <ele>229.41</ele>
        <time>2017-02-27T09:41:15Z</time>
      </trkpt>
      <trkpt lat="43.77571" lon="5.13577">
        <ele>227.97</ele>
        <time>2017-02-27T09:41:31Z</time>
      </trkpt>
      <trkpt lat="43.77564" lon="5.13573">
        <ele>227.49</ele>
        <time>2017-02-27T09:41:42Z</time>
      </trkpt>
      <trkpt lat="43.7755" lon="5.13567">
        <ele>225.57</ele>
        <time>2017-02-27T09:42:00Z</time>
      </trkpt>
      <trkpt lat="43.77539" lon="5.1356">
        <ele>224.12</ele>
        <time>2017-02-27T09:42:14Z</time>
      </trkpt>
      <trkpt lat="43.77531" lon="5.13555">
        <ele>223.16</ele>
        <time>2017-02-27T09:42:27Z</time>
      </trkpt>
      <trkpt lat="43.77514" lon="5.13565">
        <ele>221.24</ele>
        <time>2017-02-27T09:42:41Z</time>
      </trkpt>
      <trkpt lat="43.775" lon="5.13563">
        <ele>219.8</ele>
        <time>2017-02-27T09:42:59Z</time>
      </trkpt>
      <trkpt lat="43.77486" lon="5.13558">
        <ele>218.36</ele>
        <time>2017-02-27T09:43:16Z</time>
      </trkpt>
      <trkpt lat="43.77484" lon="5.13558">
        <ele>218.36</ele>
        <time>2017-02-27T09:43:18Z</time>
      </trkpt>
      <trkpt lat="43.77475" lon="5.13555">
        <ele>217.4</ele>
        <time>2017-02-27T09:43:26Z</time>
      </trkpt>
      <trkpt lat="43.77464" lon="5.13543">
        <ele>215.95</ele>
        <time>2017-02-27T09:43:42Z</time>
      </trkpt>
      <trkpt lat="43.77459" lon="5.13526">
        <ele>214.99</ele>
        <time>2017-02-27T09:43:57Z</time>
      </trkpt>
      <trkpt lat="43.77457" lon="5.13505">
        <ele>212.59</ele>
        <time>2017-02-27T09:44:14Z</time>
      </trkpt>
      <trkpt lat="43.77444" lon="5.13487">
        <ele>211.63</ele>
        <time>2017-02-27T09:44:32Z</time>
      </trkpt>
      <trkpt lat="43.77432" lon="5.13485">
        <ele>210.67</ele>
        <time>2017-02-27T09:44:46Z</time>
      </trkpt>
      <trkpt lat="43.77421" lon="5.13493">
        <ele>208.74</ele>
        <time>2017-02-27T09:45:00Z</time>
      </trkpt>
      <trkpt lat="43.77409" lon="5.13485">
        <ele>207.3</ele>
        <time>2017-02-27T09:45:18Z</time>
      </trkpt>
      <trkpt lat="43.77401" lon="5.13484">
        <ele>205.86</ele>
        <time>2017-02-27T09:45:31Z</time>
      </trkpt>
      <trkpt lat="43.77399" lon="5.13494">
        <ele>204.42</ele>
        <time>2017-02-27T09:45:45Z</time>
      </trkpt>
      <trkpt lat="43.77393" lon="5.13514">
        <ele>202.49</ele>
        <time>2017-02-27T09:45:59Z</time>
      </trkpt>
      <trkpt lat="43.77389" lon="5.13523">
        <ele>201.05</ele>
        <time>2017-02-27T09:46:11Z</time>
      </trkpt>
      <trkpt lat="43.77379" lon="5.13525">
        <ele>199.13</ele>
        <time>2017-02-27T09:46:26Z</time>
      </trkpt>
      <trkpt lat="43.77372" lon="5.13522">
        <ele>196.73</ele>
        <time>2017-02-27T09:46:40Z</time>
      </trkpt>
      <trkpt lat="43.77364" lon="5.13534">
        <ele>194.8</ele>
        <time>2017-02-27T09:46:55Z</time>
      </trkpt>
      <trkpt lat="43.77357" lon="5.1355">
        <ele>193.36</ele>
        <time>2017-02-27T09:47:11Z</time>
      </trkpt>
      <trkpt lat="43.77353" lon="5.13564">
        <ele>191.92</ele>
        <time>2017-02-27T09:47:25Z</time>
      </trkpt>
      <trkpt lat="43.77353" lon="5.13576">
        <ele>190.96</ele>
        <time>2017-02-27T09:47:35Z</time>
      </trkpt>
      <trkpt lat="43.77348" lon="5.13594">
        <ele>189.52</ele>
        <time>2017-02-27T09:47:51Z</time>
      </trkpt>
      <trkpt lat="43.77344" lon="5.13607">
        <ele>188.56</ele>
        <time>2017-02-27T09:48:03Z</time>
      </trkpt>
      <trkpt lat="43.77336" lon="5.13625">
        <ele>187.59</ele>
        <time>2017-02-27T09:48:18Z</time>
      </trkpt>
      <trkpt lat="43.77333" lon="5.13643">
        <ele>187.11</ele>
        <time>2017-02-27T09:48:31Z</time>
      </trkpt>
      <trkpt lat="43.77328" lon="5.13657">
        <ele>186.15</ele>
        <time>2017-02-27T09:48:46Z</time>
      </trkpt>
      <trkpt lat="43.77318" lon="5.13668">
        <ele>184.71</ele>
        <time>2017-02-27T09:48:59Z</time>
      </trkpt>
      <trkpt lat="43.77302" lon="5.13661">
        <ele>183.75</ele>
        <time>2017-02-27T09:49:15Z</time>
      </trkpt>
      <trkpt lat="43.77294" lon="5.13649">
        <ele>182.79</ele>
        <time>2017-02-27T09:49:30Z</time>
      </trkpt>
      <trkpt lat="43.77292" lon="5.13646">
        <ele>182.31</ele>
        <time>2017-02-27T09:49:33Z</time>
      </trkpt>
      <trkpt lat="43.77285" lon="5.13626">
        <ele>181.83</ele>
        <time>2017-02-27T09:49:50Z</time>
      </trkpt>
      <trkpt lat="43.77271" lon="5.13612">
        <ele>180.38</ele>
        <time>2017-02-27T09:50:08Z</time>
      </trkpt>
      <trkpt lat="43.77255" lon="5.13604">
        <ele>178.94</ele>
        <time>2017-02-27T09:50:25Z</time>
      </trkpt>
      <trkpt lat="43.77244" lon="5.13598">
        <ele>178.46</ele>
        <time>2017-02-27T09:50:40Z</time>
      </trkpt>
      <trkpt lat="43.77228" lon="5.13596">
        <ele>177.5</ele>
        <time>2017-02-27T09:50:57Z</time>
      </trkpt>
      <trkpt lat="43.77222" lon="5.13597">
        <ele>177.02</ele>
        <time>2017-02-27T09:51:04Z</time>
      </trkpt>
      <trkpt lat="43.77208" lon="5.13602">
        <ele>176.06</ele>
        <time>2017-02-27T09:51:21Z</time>
      </trkpt>
      <trkpt lat="43.77193" lon="5.13606">
        <ele>175.1</ele>
        <time>2017-02-27T09:51:36Z</time>
      </trkpt>
      <trkpt lat="43.77176" lon="5.1361">
        <ele>174.62</ele>
        <time>2017-02-27T09:51:50Z</time>
      </trkpt>
      <trkpt lat="43.77158" lon="5.13607">
        <ele>174.14</ele>
        <time>2017-02-27T09:52:09Z</time>
      </trkpt>
      <trkpt lat="43.77146" lon="5.13606">
        <ele>174.14</ele>
        <time>2017-02-27T09:52:20Z</time>
      </trkpt>
      <trkpt lat="43.77142" lon="5.13606">
        <ele>174.14</ele>
        <time>2017-02-27T09:52:24Z</time>
      </trkpt>
      <trkpt lat="43.77124" lon="5.13611">
        <ele>174.14</ele>
        <time>2017-02-27T09:52:40Z</time>
      </trkpt>
      <trkpt lat="43.77124" lon="5.13614">
        <ele>173.66</ele>
        <time>2017-02-27T09:53:02Z</time>
      </trkpt>
      <trkpt lat="43.77124" lon="5.13611">
        <ele>173.17</ele>
        <time>2017-02-27T09:53:21Z</time>
      </trkpt>
      <trkpt lat="43.77124" lon="5.13613">
        <ele>173.17</ele>
        <time>2017-02-27T09:53:43Z</time>
      </trkpt>
      <trkpt lat="43.77122" lon="5.13612">
        <ele>172.69</ele>
        <time>2017-02-27T09:54:12Z</time>
      </trkpt>
      <trkpt lat="43.77122" lon="5.13615">
        <ele>172.21</ele>
        <time>2017-02-27T09:54:34Z</time>
      </trkpt>
      <trkpt lat="43.7713" lon="5.1362">
        <ele>173.66</ele>
        <time>2017-02-27T09:54:49Z</time>
      </trkpt>
      <trkpt lat="43.77133" lon="5.13631">
        <ele>176.06</ele>
        <time>2017-02-27T09:55:02Z</time>
      </trkpt>
      <trkpt lat="43.77132" lon="5.13645">
        <ele>177.98</ele>
        <time>2017-02-27T09:55:19Z</time>
      </trkpt>
      <trkpt lat="43.77131" lon="5.13656">
        <ele>179.42</ele>
        <time>2017-02-27T09:55:34Z</time>
      </trkpt>
      <trkpt lat="43.77129" lon="5.13665">
        <ele>181.35</ele>
        <time>2017-02-27T09:55:48Z</time>
      </trkpt>
      <trkpt lat="43.77129" lon="5.1368">
        <ele>183.75</ele>
        <time>2017-02-27T09:56:04Z</time>
      </trkpt>
      <trkpt lat="43.77129" lon="5.13695">
        <ele>186.15</ele>
        <time>2017-02-27T09:56:22Z</time>
      </trkpt>
      <trkpt lat="43.7713" lon="5.13708">
        <ele>187.59</ele>
        <time>2017-02-27T09:56:37Z</time>
      </trkpt>
      <trkpt lat="43.77131" lon="5.13719">
        <ele>190</ele>
        <time>2017-02-27T09:56:51Z</time>
      </trkpt>
      <trkpt lat="43.77134" lon="5.1373">
        <ele>192.4</ele>
        <time>2017-02-27T09:57:06Z</time>
      </trkpt>
      <trkpt lat="43.77137" lon="5.1374">
        <ele>194.32</ele>
        <time>2017-02-27T09:57:20Z</time>
      </trkpt>
      <trkpt lat="43.77143" lon="5.13743">
        <ele>196.25</ele>
        <time>2017-02-27T09:57:34Z</time>
      </trkpt>
      <trkpt lat="43.77148" lon="5.13741">
        <ele>198.17</ele>
        <time>2017-02-27T09:57:48Z</time>
      </trkpt>
      <trkpt lat="43.77145" lon="5.13741">
        <ele>198.65</ele>
        <time>2017-02-27T09:58:03Z</time>
      </trkpt>
      <trkpt lat="43.77144" lon="5.13743">
        <ele>199.13</ele>
        <time>2017-02-27T09:58:31Z</time>
      </trkpt>
      <trkpt lat="43.77145" lon="5.13741">
        <ele>199.13</ele>
        <time>2017-02-27T09:58:51Z</time>
      </trkpt>
      <trkpt lat="43.77146" lon="5.13742">
        <ele>199.13</ele>
        <time>2017-02-27T09:59:10Z</time>
      </trkpt>
      <trkpt lat="43.77146" lon="5.13743">
        <ele>200.09</ele>
        <time>2017-02-27T09:59:30Z</time>
      </trkpt>
      <trkpt lat="43.77144" lon="5.13741">
        <ele>198.65</ele>
        <time>2017-02-27T10:00:07Z</time>
      </trkpt>
      <trkpt lat="43.77154" lon="5.13742">
        <ele>199.13</ele>
        <time>2017-02-27T10:00:26Z</time>
      </trkpt>
      <trkpt lat="43.77158" lon="5.13741">
        <ele>200.09</ele>
        <time>2017-02-27T10:00:31Z</time>
      </trkpt>
      <trkpt lat="43.77167" lon="5.13741">
        <ele>202.01</ele>
        <time>2017-02-27T10:00:48Z</time>
      </trkpt>
      <trkpt lat="43.77176" lon="5.1374">
        <ele>204.42</ele>
        <time>2017-02-27T10:01:02Z</time>
      </trkpt>
      <trkpt lat="43.77181" lon="5.13742">
        <ele>206.34</ele>
        <time>2017-02-27T10:01:13Z</time>
      </trkpt>
      <trkpt lat="43.77181" lon="5.13753">
        <ele>207.78</ele>
        <time>2017-02-27T10:01:28Z</time>
      </trkpt>
      <trkpt lat="43.77178" lon="5.1376">
        <ele>210.19</ele>
        <time>2017-02-27T10:01:41Z</time>
      </trkpt>
      <trkpt lat="43.77174" lon="5.13769">
        <ele>212.11</ele>
        <time>2017-02-27T10:01:57Z</time>
      </trkpt>
      <trkpt lat="43.77172" lon="5.13779">
        <ele>214.03</ele>
        <time>2017-02-27T10:02:12Z</time>
      </trkpt>
      <trkpt lat="43.7717" lon="5.13792">
        <ele>214.99</ele>
        <time>2017-02-27T10:02:25Z</time>
      </trkpt>
      <trkpt lat="43.77166" lon="5.13803">
        <ele>216.91</ele>
        <time>2017-02-27T10:02:40Z</time>
      </trkpt>
      <trkpt lat="43.77159" lon="5.13809">
        <ele>218.36</ele>
        <time>2017-02-27T10:02:51Z</time>
      </trkpt>
      <trkpt lat="43.77152" lon="5.13817">
        <ele>219.8</ele>
        <time>2017-02-27T10:03:03Z</time>
      </trkpt>
      <trkpt lat="43.77146" lon="5.13831">
        <ele>221.24</ele>
        <time>2017-02-27T10:03:18Z</time>
      </trkpt>
      <trkpt lat="43.77143" lon="5.1385">
        <ele>220.76</ele>
        <time>2017-02-27T10:03:34Z</time>
      </trkpt>
      <trkpt lat="43.77144" lon="5.13859">
        <ele>219.8</ele>
        <time>2017-02-27T10:03:41Z</time>
      </trkpt>
      <trkpt lat="43.77142" lon="5.13874">
        <ele>219.32</ele>
        <time>2017-02-27T10:03:55Z</time>
      </trkpt>
      <trkpt lat="43.77135" lon="5.13891">
        <ele>219.32</ele>
        <time>2017-02-27T10:04:10Z</time>
      </trkpt>
      <trkpt lat="43.77127" lon="5.13906">
        <ele>218.84</ele>
        <time>2017-02-27T10:04:26Z</time>
      </trkpt>
      <trkpt lat="43.77119" lon="5.13914">
        <ele>219.32</ele>
        <time>2017-02-27T10:04:40Z</time>
      </trkpt>
      <trkpt lat="43.77119" lon="5.13914">
        <ele>217.88</ele>
        <time>2017-02-27T10:04:42Z</time>
      </trkpt>
      <trkpt lat="43.77117" lon="5.13915">
        <ele>217.88</ele>
        <time>2017-02-27T10:05:08Z</time>
      </trkpt>
      <trkpt lat="43.77113" lon="5.13926">
        <ele>217.4</ele>
        <time>2017-02-27T10:05:24Z</time>
      </trkpt>
      <trkpt lat="43.77108" lon="5.13939">
        <ele>216.91</ele>
        <time>2017-02-27T10:05:39Z</time>
      </trkpt>
      <trkpt lat="43.77102" lon="5.13946">
        <ele>215.95</ele>
        <time>2017-02-27T10:05:53Z</time>
      </trkpt>
      <trkpt lat="43.77092" lon="5.13957">
        <ele>215.47</ele>
        <time>2017-02-27T10:06:08Z</time>
      </trkpt>
      <trkpt lat="43.77086" lon="5.13966">
        <ele>215.47</ele>
        <time>2017-02-27T10:06:22Z</time>
      </trkpt>
      <trkpt lat="43.7708" lon="5.1398">
        <ele>216.91</ele>
        <time>2017-02-27T10:06:37Z</time>
      </trkpt>
      <trkpt lat="43.77076" lon="5.13998">
        <ele>217.88</ele>
        <time>2017-02-27T10:06:52Z</time>
      </trkpt>
      <trkpt lat="43.7707" lon="5.14014">
        <ele>219.8</ele>
        <time>2017-02-27T10:07:06Z</time>
      </trkpt>
      <trkpt lat="43.77063" lon="5.14028">
        <ele>220.76</ele>
        <time>2017-02-27T10:07:22Z</time>
      </trkpt>
      <trkpt lat="43.77055" lon="5.14042">
        <ele>222.68</ele>
        <time>2017-02-27T10:07:35Z</time>
      </trkpt>
      <trkpt lat="43.77044" lon="5.14042">
        <ele>223.64</ele>
        <time>2017-02-27T10:07:49Z</time>
      </trkpt>
      <trkpt lat="43.77036" lon="5.1404">
        <ele>225.57</ele>
        <time>2017-02-27T10:08:02Z</time>
      </trkpt>
      <trkpt lat="43.7703" lon="5.14043">
        <ele>227.01</ele>
        <time>2017-02-27T10:08:14Z</time>
      </trkpt>
      <trkpt lat="43.77021" lon="5.1405">
        <ele>228.93</ele>
        <time>2017-02-27T10:08:30Z</time>
      </trkpt>
      <trkpt lat="43.77014" lon="5.14055">
        <ele>230.37</ele>
        <time>2017-02-27T10:08:43Z</time>
      </trkpt>
      <trkpt lat="43.77009" lon="5.14072">
        <ele>232.78</ele>
        <time>2017-02-27T10:09:00Z</time>
      </trkpt>
      <trkpt lat="43.77004" lon="5.14087">
        <ele>233.26</ele>
        <time>2017-02-27T10:09:14Z</time>
      </trkpt>
      <trkpt lat="43.76999" lon="5.14102">
        <ele>235.18</ele>
        <time>2017-02-27T10:09:30Z</time>
      </trkpt>
      <trkpt lat="43.76994" lon="5.14115">
        <ele>236.14</ele>
        <time>2017-02-27T10:09:43Z</time>
      </trkpt>
      <trkpt lat="43.76987" lon="5.14125">
        <ele>238.06</ele>
        <time>2017-02-27T10:09:57Z</time>
      </trkpt>
      <trkpt lat="43.76977" lon="5.14141">
        <ele>239.99</ele>
        <time>2017-02-27T10:10:12Z</time>
      </trkpt>
      <trkpt lat="43.7697" lon="5.1415">
        <ele>240.47</ele>
        <time>2017-02-27T10:10:24Z</time>
      </trkpt>
      <trkpt lat="43.76963" lon="5.14158">
        <ele>241.43</ele>
        <time>2017-02-27T10:10:38Z</time>
      </trkpt>
      <trkpt lat="43.76955" lon="5.14176">
        <ele>241.91</ele>
        <time>2017-02-27T10:10:52Z</time>
      </trkpt>
      <trkpt lat="43.76949" lon="5.14191">
        <ele>243.35</ele>
        <time>2017-02-27T10:11:08Z</time>
      </trkpt>
      <trkpt lat="43.76943" lon="5.14206">
        <ele>244.79</ele>
        <time>2017-02-27T10:11:22Z</time>
      </trkpt>
      <trkpt lat="43.76938" lon="5.14224">
        <ele>245.27</ele>
        <time>2017-02-27T10:11:38Z</time>
      </trkpt>
      <trkpt lat="43.76933" lon="5.14246">
        <ele>246.23</ele>
        <time>2017-02-27T10:11:56Z</time>
      </trkpt>
      <trkpt lat="43.7692" lon="5.14257">
        <ele>247.2</ele>
        <time>2017-02-27T10:12:19Z</time>
      </trkpt>
      <trkpt lat="43.76919" lon="5.14258">
        <ele>247.68</ele>
        <time>2017-02-27T10:12:44Z</time>
      </trkpt>
      <trkpt lat="43.76919" lon="5.14258">
        <ele>247.68</ele>
        <time>2017-02-27T10:13:03Z</time>
      </trkpt>
      <trkpt lat="43.76919" lon="5.14257">
        <ele>248.16</ele>
        <time>2017-02-27T10:13:26Z</time>
      </trkpt>
      <trkpt lat="43.76916" lon="5.14255">
        <ele>246.72</ele>
        <time>2017-02-27T10:13:50Z</time>
      </trkpt>
      <trkpt lat="43.76916" lon="5.14252">
        <ele>246.72</ele>
        <time>2017-02-27T10:14:14Z</time>
      </trkpt>
      <trkpt lat="43.76917" lon="5.14249">
        <ele>248.16</ele>
        <time>2017-02-27T10:14:39Z</time>
      </trkpt>
      <trkpt lat="43.76916" lon="5.1425">
        <ele>248.16</ele>
        <time>2017-02-27T10:15:00Z</time>
      </trkpt>
      <trkpt lat="43.76915" lon="5.14251">
        <ele>248.16</ele>
        <time>2017-02-27T10:15:23Z</time>
      </trkpt>
      <trkpt lat="43.76906" lon="5.1426">
        <ele>247.2</ele>
        <time>2017-02-27T10:15:40Z</time>
      </trkpt>
      <trkpt lat="43.76894" lon="5.1426">
        <ele>247.2</ele>
        <time>2017-02-27T10:15:53Z</time>
      </trkpt>
      <trkpt lat="43.76882" lon="5.14266">
        <ele>249.12</ele>
        <time>2017-02-27T10:16:06Z</time>
      </trkpt>
      <trkpt lat="43.76879" lon="5.14272">
        <ele>249.6</ele>
        <time>2017-02-27T10:16:14Z</time>
      </trkpt>
      <trkpt lat="43.76877" lon="5.14293">
        <ele>249.12</ele>
        <time>2017-02-27T10:16:33Z</time>
      </trkpt>
      <trkpt lat="43.76877" lon="5.14297">
        <ele>250.08</ele>
        <time>2017-02-27T10:16:36Z</time>
      </trkpt>
      <trkpt lat="43.76876" lon="5.14301">
        <ele>250.08</ele>
        <time>2017-02-27T10:16:39Z</time>
      </trkpt>
      <trkpt lat="43.76875" lon="5.14316">
        <ele>251.52</ele>
        <time>2017-02-27T10:16:48Z</time>
      </trkpt>
      <trkpt lat="43.76879" lon="5.14336">
        <ele>251.52</ele>
        <time>2017-02-27T10:17:04Z</time>
      </trkpt>
      <trkpt lat="43.76887" lon="5.14351">
        <ele>251.04</ele>
        <time>2017-02-27T10:17:19Z</time>
      </trkpt>
      <trkpt lat="43.76887" lon="5.14353">
        <ele>248.16</ele>
        <time>2017-02-27T10:17:20Z</time>
      </trkpt>
      <trkpt lat="43.76888" lon="5.14354">
        <ele>253.93</ele>
        <time>2017-02-27T10:17:21Z</time>
      </trkpt>
      <trkpt lat="43.76889" lon="5.14359">
        <ele>250.56</ele>
        <time>2017-02-27T10:17:27Z</time>
      </trkpt>
      <trkpt lat="43.76898" lon="5.14362">
        <ele>251.52</ele>
        <time>2017-02-27T10:17:41Z</time>
      </trkpt>
      <trkpt lat="43.7691" lon="5.14376">
        <ele>253.93</ele>
        <time>2017-02-27T10:18:01Z</time>
      </trkpt>
      <trkpt lat="43.7692" lon="5.14394">
        <ele>255.37</ele>
        <time>2017-02-27T10:18:18Z</time>
      </trkpt>
      <trkpt lat="43.76923" lon="5.14399">
        <ele>257.29</ele>
        <time>2017-02-27T10:18:33Z</time>
      </trkpt>
      <trkpt lat="43.76925" lon="5.14402">
        <ele>257.29</ele>
        <time>2017-02-27T10:19:02Z</time>
      </trkpt>
      <trkpt lat="43.76924" lon="5.14402">
        <ele>257.29</ele>
        <time>2017-02-27T10:19:26Z</time>
      </trkpt>
      <trkpt lat="43.76926" lon="5.14403">
        <ele>257.29</ele>
        <time>2017-02-27T10:19:50Z</time>
      </trkpt>
      <trkpt lat="43.76946" lon="5.14414">
        <ele>259.69</ele>
        <time>2017-02-27T10:20:13Z</time>
      </trkpt>
      <trkpt lat="43.7696" lon="5.14424">
        <ele>261.62</ele>
        <time>2017-02-27T10:20:29Z</time>
      </trkpt>
      <trkpt lat="43.76961" lon="5.14425">
        <ele>260.17</ele>
        <time>2017-02-27T10:20:47Z</time>
      </trkpt>
      <trkpt lat="43.76967" lon="5.14428">
        <ele>261.62</ele>
        <time>2017-02-27T10:21:03Z</time>
      </trkpt>
      <trkpt lat="43.76974" lon="5.14435">
        <ele>264.02</ele>
        <time>2017-02-27T10:21:19Z</time>
      </trkpt>
      <trkpt lat="43.7698" lon="5.14439">
        <ele>266.42</ele>
        <time>2017-02-27T10:21:34Z</time>
      </trkpt>
      <trkpt lat="43.76987" lon="5.14455">
        <ele>268.35</ele>
        <time>2017-02-27T10:21:56Z</time>
      </trkpt>
      <trkpt lat="43.76992" lon="5.1447">
        <ele>269.79</ele>
        <time>2017-02-27T10:22:12Z</time>
      </trkpt>
      <trkpt lat="43.76997" lon="5.14471">
        <ele>272.19</ele>
        <time>2017-02-27T10:22:29Z</time>
      </trkpt>
      <trkpt lat="43.77001" lon="5.14475">
        <ele>275.07</ele>
        <time>2017-02-27T10:22:48Z</time>
      </trkpt>
      <trkpt lat="43.76999" lon="5.14477">
        <ele>275.56</ele>
        <time>2017-02-27T10:23:07Z</time>
      </trkpt>
      <trkpt lat="43.77" lon="5.14476">
        <ele>275.07</ele>
        <time>2017-02-27T10:23:42Z</time>
      </trkpt>
      <trkpt lat="43.77004" lon="5.14469">
        <ele>276.52</ele>
        <time>2017-02-27T10:24:04Z</time>
      </trkpt>
      <trkpt lat="43.77005" lon="5.1446">
        <ele>278.92</ele>
        <time>2017-02-27T10:24:17Z</time>
      </trkpt>
      <trkpt lat="43.77011" lon="5.1446">
        <ele>281.8</ele>
        <time>2017-02-27T10:24:34Z</time>
      </trkpt>
      <trkpt lat="43.77018" lon="5.14465">
        <ele>284.21</ele>
        <time>2017-02-27T10:24:53Z</time>
      </trkpt>
      <trkpt lat="43.77019" lon="5.14464">
        <ele>284.69</ele>
        <time>2017-02-27T10:25:13Z</time>
      </trkpt>
      <trkpt lat="43.77021" lon="5.14463">
        <ele>286.61</ele>
        <time>2017-02-27T10:25:33Z</time>
      </trkpt>
      <trkpt lat="43.77025" lon="5.1447">
        <ele>289.97</ele>
        <time>2017-02-27T10:25:52Z</time>
      </trkpt>
      <trkpt lat="43.77027" lon="5.14479">
        <ele>291.42</ele>
        <time>2017-02-27T10:26:08Z</time>
      </trkpt>
      <trkpt lat="43.77026" lon="5.14479">
        <ele>291.9</ele>
        <time>2017-02-27T10:26:34Z</time>
      </trkpt>
      <trkpt lat="43.77024" lon="5.14482">
        <ele>291.9</ele>
        <time>2017-02-27T10:27:05Z</time>
      </trkpt>
      <trkpt lat="43.77022" lon="5.1448">
        <ele>291.9</ele>
        <time>2017-02-27T10:27:35Z</time>
      </trkpt>
      <trkpt lat="43.77023" lon="5.1448">
        <ele>291.42</ele>
        <time>2017-02-27T10:28:04Z</time>
      </trkpt>
      <trkpt lat="43.77023" lon="5.14481">
        <ele>291.42</ele>
        <time>2017-02-27T10:28:37Z</time>
      </trkpt>
      <trkpt lat="43.77023" lon="5.14479">
        <ele>291.42</ele>
        <time>2017-02-27T10:29:05Z</time>
      </trkpt>
      <trkpt lat="43.77024" lon="5.1448">
        <ele>291.42</ele>
        <time>2017-02-27T10:29:34Z</time>
      </trkpt>
      <trkpt lat="43.77024" lon="5.14478">
        <ele>291.42</ele>
        <time>2017-02-27T10:30:04Z</time>
      </trkpt>
      <trkpt lat="43.77022" lon="5.14477">
        <ele>290.94</ele>
        <time>2017-02-27T10:30:32Z</time>
      </trkpt>
      <trkpt lat="43.77023" lon="5.14479">
        <ele>290.94</ele>
        <time>2017-02-27T10:31:05Z</time>
      </trkpt>
      <trkpt lat="43.77022" lon="5.14479">
        <ele>290.94</ele>
        <time>2017-02-27T10:31:38Z</time>
      </trkpt>
      <trkpt lat="43.77027" lon="5.14477">
        <ele>290.94</ele>
        <time>2017-02-27T10:31:54Z</time>
      </trkpt>
      <trkpt lat="43.77026" lon="5.14476">
        <ele>290.94</ele>
        <time>2017-02-27T10:32:21Z</time>
      </trkpt>
      <trkpt lat="43.77032" lon="5.14474">
        <ele>291.9</ele>
        <time>2017-02-27T10:32:37Z</time>
      </trkpt>
      <trkpt lat="43.77039" lon="5.1447">
        <ele>294.78</ele>
        <time>2017-02-27T10:32:55Z</time>
      </trkpt>
      <trkpt lat="43.77047" lon="5.14464">
        <ele>297.18</ele>
        <time>2017-02-27T10:33:16Z</time>
      </trkpt>
      <trkpt lat="43.77061" lon="5.14465">
        <ele>299.59</ele>
        <time>2017-02-27T10:33:36Z</time>
      </trkpt>
      <trkpt lat="43.77068" lon="5.14468">
        <ele>302.95</ele>
        <time>2017-02-27T10:33:54Z</time>
      </trkpt>
      <trkpt lat="43.77082" lon="5.14471">
        <ele>305.36</ele>
        <time>2017-02-27T10:34:13Z</time>
      </trkpt>
      <trkpt lat="43.77098" lon="5.14474">
        <ele>308.72</ele>
        <time>2017-02-27T10:34:33Z</time>
      </trkpt>
      <trkpt lat="43.7711" lon="5.1448">
        <ele>311.12</ele>
        <time>2017-02-27T10:34:52Z</time>
      </trkpt>
      <trkpt lat="43.7712" lon="5.14487">
        <ele>313.53</ele>
        <time>2017-02-27T10:35:11Z</time>
      </trkpt>
      <trkpt lat="43.7713" lon="5.14489">
        <ele>315.93</ele>
        <time>2017-02-27T10:35:27Z</time>
      </trkpt>
      <trkpt lat="43.77143" lon="5.14485">
        <ele>318.33</ele>
        <time>2017-02-27T10:35:45Z</time>
      </trkpt>
      <trkpt lat="43.77152" lon="5.14481">
        <ele>320.74</ele>
        <time>2017-02-27T10:36:02Z</time>
      </trkpt>
      <trkpt lat="43.77159" lon="5.14474">
        <ele>323.62</ele>
        <time>2017-02-27T10:36:19Z</time>
      </trkpt>
      <trkpt lat="43.77171" lon="5.1447">
        <ele>325.54</ele>
        <time>2017-02-27T10:36:37Z</time>
      </trkpt>
      <trkpt lat="43.77183" lon="5.14467">
        <ele>327.47</ele>
        <time>2017-02-27T10:36:55Z</time>
      </trkpt>
      <trkpt lat="43.77183" lon="5.14464">
        <ele>327.95</ele>
        <time>2017-02-27T10:37:17Z</time>
      </trkpt>
      <trkpt lat="43.77182" lon="5.14463">
        <ele>327.47</ele>
        <time>2017-02-27T10:37:45Z</time>
      </trkpt>
      <trkpt lat="43.77184" lon="5.14465">
        <ele>326.99</ele>
        <time>2017-02-27T10:38:15Z</time>
      </trkpt>
      <trkpt lat="43.77193" lon="5.14466">
        <ele>328.43</ele>
        <time>2017-02-27T10:38:28Z</time>
      </trkpt>
      <trkpt lat="43.77208" lon="5.14463">
        <ele>328.91</ele>
        <time>2017-02-27T10:38:46Z</time>
      </trkpt>
      <trkpt lat="43.77214" lon="5.14462">
        <ele>329.39</ele>
        <time>2017-02-27T10:39:02Z</time>
      </trkpt>
      <trkpt lat="43.7723" lon="5.14464">
        <ele>329.39</ele>
        <time>2017-02-27T10:39:21Z</time>
      </trkpt>
      <trkpt lat="43.77234" lon="5.14462">
        <ele>329.39</ele>
        <time>2017-02-27T10:39:26Z</time>
      </trkpt>
      <trkpt lat="43.77248" lon="5.14449">
        <ele>329.87</ele>
        <time>2017-02-27T10:39:45Z</time>
      </trkpt>
      <trkpt lat="43.77264" lon="5.14444">
        <ele>329.87</ele>
        <time>2017-02-27T10:40:04Z</time>
      </trkpt>
      <trkpt lat="43.7728" lon="5.14444">
        <ele>327.95</ele>
        <time>2017-02-27T10:40:23Z</time>
      </trkpt>
      <trkpt lat="43.77294" lon="5.14437">
        <ele>326.99</ele>
        <time>2017-02-27T10:40:42Z</time>
      </trkpt>
      <trkpt lat="43.7731" lon="5.14438">
        <ele>326.5</ele>
        <time>2017-02-27T10:41:00Z</time>
      </trkpt>
      <trkpt lat="43.77327" lon="5.1443">
        <ele>324.58</ele>
        <time>2017-02-27T10:41:21Z</time>
      </trkpt>
      <trkpt lat="43.77345" lon="5.14425">
        <ele>323.62</ele>
        <time>2017-02-27T10:41:40Z</time>
      </trkpt>
      <trkpt lat="43.77361" lon="5.14417">
        <ele>322.18</ele>
        <time>2017-02-27T10:41:59Z</time>
      </trkpt>
      <trkpt lat="43.77376" lon="5.14412">
        <ele>321.22</ele>
        <time>2017-02-27T10:42:15Z</time>
      </trkpt>
      <trkpt lat="43.77391" lon="5.14405">
        <ele>320.26</ele>
        <time>2017-02-27T10:42:31Z</time>
      </trkpt>
      <trkpt lat="43.77406" lon="5.14384">
        <ele>317.85</ele>
        <time>2017-02-27T10:42:53Z</time>
      </trkpt>
      <trkpt lat="43.77418" lon="5.14372">
        <ele>317.37</ele>
        <time>2017-02-27T10:43:11Z</time>
      </trkpt>
      <trkpt lat="43.7743" lon="5.1436">
        <ele>315.93</ele>
        <time>2017-02-27T10:43:28Z</time>
      </trkpt>
      <trkpt lat="43.77441" lon="5.14356">
        <ele>314.49</ele>
        <time>2017-02-27T10:43:44Z</time>
      </trkpt>
      <trkpt lat="43.77452" lon="5.14344">
        <ele>313.53</ele>
        <time>2017-02-27T10:44:01Z</time>
      </trkpt>
      <trkpt lat="43.77461" lon="5.14339">
        <ele>312.09</ele>
        <time>2017-02-27T10:44:16Z</time>
      </trkpt>
      <trkpt lat="43.77475" lon="5.14328">
        <ele>310.64</ele>
        <time>2017-02-27T10:44:33Z</time>
      </trkpt>
      <trkpt lat="43.77495" lon="5.14318">
        <ele>309.2</ele>
        <time>2017-02-27T10:44:54Z</time>
      </trkpt>
      <trkpt lat="43.77518" lon="5.14311">
        <ele>308.24</ele>
        <time>2017-02-27T10:45:18Z</time>
      </trkpt>
      <trkpt lat="43.7754" lon="5.14305">
        <ele>307.28</ele>
        <time>2017-02-27T10:45:41Z</time>
      </trkpt>
      <trkpt lat="43.77561" lon="5.14297">
        <ele>306.32</ele>
        <time>2017-02-27T10:46:02Z</time>
      </trkpt>
      <trkpt lat="43.77581" lon="5.14298">
        <ele>306.32</ele>
        <time>2017-02-27T10:46:22Z</time>
      </trkpt>
      <trkpt lat="43.776" lon="5.14293">
        <ele>306.32</ele>
        <time>2017-02-27T10:46:42Z</time>
      </trkpt>
      <trkpt lat="43.77606" lon="5.14293">
        <ele>307.76</ele>
        <time>2017-02-27T10:46:48Z</time>
      </trkpt>
      <trkpt lat="43.77614" lon="5.14295">
        <ele>307.76</ele>
        <time>2017-02-27T10:47:03Z</time>
      </trkpt>
      <trkpt lat="43.77616" lon="5.14297">
        <ele>308.24</ele>
        <time>2017-02-27T10:47:19Z</time>
      </trkpt>
      <trkpt lat="43.77624" lon="5.14303">
        <ele>308.72</ele>
        <time>2017-02-27T10:47:31Z</time>
      </trkpt>
      <trkpt lat="43.77636" lon="5.14308">
        <ele>308.72</ele>
        <time>2017-02-27T10:47:48Z</time>
      </trkpt>
      <trkpt lat="43.77636" lon="5.14309">
        <ele>309.2</ele>
        <time>2017-02-27T10:48:13Z</time>
      </trkpt>
      <trkpt lat="43.77642" lon="5.14313">
        <ele>309.2</ele>
        <time>2017-02-27T10:48:33Z</time>
      </trkpt>
      <trkpt lat="43.77655" lon="5.14318">
        <ele>309.68</ele>
        <time>2017-02-27T10:48:50Z</time>
      </trkpt>
      <trkpt lat="43.77671" lon="5.14324">
        <ele>309.68</ele>
        <time>2017-02-27T10:49:10Z</time>
      </trkpt>
      <trkpt lat="43.77671" lon="5.14324">
        <ele>310.16</ele>
        <time>2017-02-27T10:49:33Z</time>
      </trkpt>
      <trkpt lat="43.77685" lon="5.1433">
        <ele>310.64</ele>
        <time>2017-02-27T10:49:51Z</time>
      </trkpt>
      <trkpt lat="43.77695" lon="5.14336">
        <ele>311.6</ele>
        <time>2017-02-27T10:50:06Z</time>
      </trkpt>
      <trkpt lat="43.77699" lon="5.14341">
        <ele>312.57</ele>
        <time>2017-02-27T10:50:20Z</time>
      </trkpt>
      <trkpt lat="43.77699" lon="5.14347">
        <ele>312.57</ele>
        <time>2017-02-27T10:50:40Z</time>
      </trkpt>
      <trkpt lat="43.77696" lon="5.14348">
        <ele>312.57</ele>
        <time>2017-02-27T10:51:04Z</time>
      </trkpt>
      <trkpt lat="43.77694" lon="5.14341">
        <ele>312.57</ele>
        <time>2017-02-27T10:51:31Z</time>
      </trkpt>
      <trkpt lat="43.77697" lon="5.1434">
        <ele>312.57</ele>
        <time>2017-02-27T10:51:57Z</time>
      </trkpt>
      <trkpt lat="43.77696" lon="5.14344">
        <ele>313.05</ele>
        <time>2017-02-27T10:52:15Z</time>
      </trkpt>
      <trkpt lat="43.77697" lon="5.14345">
        <ele>313.05</ele>
        <time>2017-02-27T10:52:37Z</time>
      </trkpt>
      <trkpt lat="43.77698" lon="5.14342">
        <ele>311.6</ele>
        <time>2017-02-27T10:53:07Z</time>
      </trkpt>
      <trkpt lat="43.77699" lon="5.1434">
        <ele>312.09</ele>
        <time>2017-02-27T10:53:41Z</time>
      </trkpt>
      <trkpt lat="43.77699" lon="5.14338">
        <ele>312.09</ele>
        <time>2017-02-27T10:54:09Z</time>
      </trkpt>
      <trkpt lat="43.77698" lon="5.1434">
        <ele>312.09</ele>
        <time>2017-02-27T10:54:40Z</time>
      </trkpt>
      <trkpt lat="43.77698" lon="5.14341">
        <ele>312.09</ele>
        <time>2017-02-27T10:55:14Z</time>
      </trkpt>
      <trkpt lat="43.77696" lon="5.14339">
        <ele>312.57</ele>
        <time>2017-02-27T10:55:53Z</time>
      </trkpt>
      <trkpt lat="43.77697" lon="5.14339">
        <ele>312.09</ele>
        <time>2017-02-27T10:56:29Z</time>
      </trkpt>
      <trkpt lat="43.77695" lon="5.1434">
        <ele>312.09</ele>
        <time>2017-02-27T10:57:01Z</time>
      </trkpt>
      <trkpt lat="43.777" lon="5.1434">
        <ele>312.57</ele>
        <time>2017-02-27T10:57:41Z</time>
      </trkpt>
      <trkpt lat="43.77698" lon="5.1434">
        <ele>312.57</ele>
        <time>2017-02-27T10:58:14Z</time>
      </trkpt>
      <trkpt lat="43.77698" lon="5.14339">
        <ele>312.57</ele>
        <time>2017-02-27T10:58:46Z</time>
      </trkpt>
      <trkpt lat="43.77699" lon="5.14342">
        <ele>312.09</ele>
        <time>2017-02-27T10:59:18Z</time>
      </trkpt>
      <trkpt lat="43.777" lon="5.14345">
        <ele>312.09</ele>
        <time>2017-02-27T10:59:46Z</time>
      </trkpt>
      <trkpt lat="43.77699" lon="5.1434">
        <ele>312.09</ele>
        <time>2017-02-27T11:00:16Z</time>
      </trkpt>
      <trkpt lat="43.77699" lon="5.14343">
        <ele>312.09</ele>
        <time>2017-02-27T11:00:49Z</time>
      </trkpt>
      <trkpt lat="43.77698" lon="5.1434">
        <ele>312.09</ele>
        <time>2017-02-27T11:01:22Z</time>
      </trkpt>
      <trkpt lat="43.77698" lon="5.14344">
        <ele>312.09</ele>
        <time>2017-02-27T11:01:56Z</time>
      </trkpt>
      <trkpt lat="43.77697" lon="5.14341">
        <ele>312.57</ele>
        <time>2017-02-27T11:02:28Z</time>
      </trkpt>
      <trkpt lat="43.77698" lon="5.14341">
        <ele>312.57</ele>
        <time>2017-02-27T11:02:59Z</time>
      </trkpt>
      <trkpt lat="43.777" lon="5.1434">
        <ele>312.57</ele>
        <time>2017-02-27T11:03:31Z</time>
      </trkpt>
      <trkpt lat="43.77698" lon="5.14341">
        <ele>313.53</ele>
        <time>2017-02-27T11:03:54Z</time>
      </trkpt>
      <trkpt lat="43.77698" lon="5.14341">
        <ele>313.53</ele>
        <time>2017-02-27T11:04:24Z</time>
      </trkpt>
      <trkpt lat="43.77697" lon="5.14341">
        <ele>313.53</ele>
        <time>2017-02-27T11:04:49Z</time>
      </trkpt>
      <trkpt lat="43.77695" lon="5.14337">
        <ele>314.01</ele>
        <time>2017-02-27T11:05:26Z</time>
      </trkpt>
      <trkpt lat="43.77696" lon="5.14339">
        <ele>314.01</ele>
        <time>2017-02-27T11:05:51Z</time>
      </trkpt>
      <trkpt lat="43.77695" lon="5.14338">
        <ele>314.01</ele>
        <time>2017-02-27T11:06:18Z</time>
      </trkpt>
      <trkpt lat="43.77694" lon="5.14339">
        <ele>314.49</ele>
        <time>2017-02-27T11:06:59Z</time>
      </trkpt>
      <trkpt lat="43.77695" lon="5.14335">
        <ele>314.49</ele>
        <time>2017-02-27T11:07:35Z</time>
      </trkpt>
      <trkpt lat="43.77696" lon="5.14337">
        <ele>314.97</ele>
        <time>2017-02-27T11:08:10Z</time>
      </trkpt>
      <trkpt lat="43.77696" lon="5.14337">
        <ele>314.97</ele>
        <time>2017-02-27T11:08:42Z</time>
      </trkpt>
      <trkpt lat="43.77696" lon="5.14339">
        <ele>314.97</ele>
        <time>2017-02-27T11:09:19Z</time>
      </trkpt>
      <trkpt lat="43.77697" lon="5.14341">
        <ele>315.45</ele>
        <time>2017-02-27T11:09:49Z</time>
      </trkpt>
      <trkpt lat="43.77696" lon="5.14338">
        <ele>315.45</ele>
        <time>2017-02-27T11:10:18Z</time>
      </trkpt>
      <trkpt lat="43.77696" lon="5.1434">
        <ele>315.45</ele>
        <time>2017-02-27T11:10:49Z</time>
      </trkpt>
      <trkpt lat="43.77696" lon="5.14339">
        <ele>315.45</ele>
        <time>2017-02-27T11:11:17Z</time>
      </trkpt>
      <trkpt lat="43.77697" lon="5.14341">
        <ele>315.45</ele>
        <time>2017-02-27T11:11:45Z</time>
      </trkpt>
      <trkpt lat="43.77697" lon="5.14339">
        <ele>315.93</ele>
        <time>2017-02-27T11:12:10Z</time>
      </trkpt>
      <trkpt lat="43.77695" lon="5.14335">
        <ele>315.93</ele>
        <time>2017-02-27T11:12:40Z</time>
      </trkpt>
      <trkpt lat="43.77694" lon="5.14338">
        <ele>316.41</ele>
        <time>2017-02-27T11:13:19Z</time>
      </trkpt>
      <trkpt lat="43.77694" lon="5.14336">
        <ele>316.89</ele>
        <time>2017-02-27T11:13:52Z</time>
      </trkpt>
      <trkpt lat="43.77695" lon="5.14336">
        <ele>316.89</ele>
        <time>2017-02-27T11:14:18Z</time>
      </trkpt>
      <trkpt lat="43.77696" lon="5.14338">
        <ele>316.89</ele>
        <time>2017-02-27T11:14:40Z</time>
      </trkpt>
      <trkpt lat="43.77696" lon="5.14338">
        <ele>317.37</ele>
        <time>2017-02-27T11:15:01Z</time>
      </trkpt>
      <trkpt lat="43.77698" lon="5.14336">
        <ele>317.37</ele>
        <time>2017-02-27T11:15:32Z</time>
      </trkpt>
      <trkpt lat="43.77699" lon="5.14339">
        <ele>317.85</ele>
        <time>2017-02-27T11:15:52Z</time>
      </trkpt>
      <trkpt lat="43.77697" lon="5.14344">
        <ele>317.85</ele>
        <time>2017-02-27T11:16:11Z</time>
      </trkpt>
      <trkpt lat="43.77697" lon="5.14341">
        <ele>317.85</ele>
        <time>2017-02-27T11:16:33Z</time>
      </trkpt>
      <trkpt lat="43.77698" lon="5.14342">
        <ele>317.85</ele>
        <time>2017-02-27T11:17:00Z</time>
      </trkpt>
      <trkpt lat="43.77701" lon="5.14342">
        <ele>317.85</ele>
        <time>2017-02-27T11:17:29Z</time>
      </trkpt>
      <trkpt lat="43.77699" lon="5.14341">
        <ele>317.85</ele>
        <time>2017-02-27T11:18:03Z</time>
      </trkpt>
      <trkpt lat="43.77697" lon="5.14342">
        <ele>317.85</ele>
        <time>2017-02-27T11:18:34Z</time>
      </trkpt>
      <trkpt lat="43.777" lon="5.14338">
        <ele>317.85</ele>
        <time>2017-02-27T11:19:05Z</time>
      </trkpt>
      <trkpt lat="43.77698" lon="5.1434">
        <ele>318.33</ele>
        <time>2017-02-27T11:19:43Z</time>
      </trkpt>
      <trkpt lat="43.77698" lon="5.14338">
        <ele>318.81</ele>
        <time>2017-02-27T11:20:18Z</time>
      </trkpt>
      <trkpt lat="43.77695" lon="5.14338">
        <ele>318.81</ele>
        <time>2017-02-27T11:20:45Z</time>
      </trkpt>
      <trkpt lat="43.77697" lon="5.14342">
        <ele>319.3</ele>
        <time>2017-02-27T11:21:02Z</time>
      </trkpt>
      <trkpt lat="43.77694" lon="5.14343">
        <ele>319.78</ele>
        <time>2017-02-27T11:21:26Z</time>
      </trkpt>
      <trkpt lat="43.77692" lon="5.14348">
        <ele>319.78</ele>
        <time>2017-02-27T11:21:52Z</time>
      </trkpt>
      <trkpt lat="43.77691" lon="5.14344">
        <ele>319.78</ele>
        <time>2017-02-27T11:22:18Z</time>
      </trkpt>
      <trkpt lat="43.77691" lon="5.14342">
        <ele>319.78</ele>
        <time>2017-02-27T11:22:46Z</time>
      </trkpt>
      <trkpt lat="43.77691" lon="5.1434">
        <ele>319.78</ele>
        <time>2017-02-27T11:23:02Z</time>
      </trkpt>
      <trkpt lat="43.77693" lon="5.1434">
        <ele>319.78</ele>
        <time>2017-02-27T11:23:25Z</time>
      </trkpt>
      <trkpt lat="43.77693" lon="5.14337">
        <ele>320.26</ele>
        <time>2017-02-27T11:23:48Z</time>
      </trkpt>
      <trkpt lat="43.77694" lon="5.14339">
        <ele>320.26</ele>
        <time>2017-02-27T11:24:09Z</time>
      </trkpt>
      <trkpt lat="43.77692" lon="5.14341">
        <ele>320.74</ele>
        <time>2017-02-27T11:24:26Z</time>
      </trkpt>
      <trkpt lat="43.77695" lon="5.14338">
        <ele>320.74</ele>
        <time>2017-02-27T11:24:55Z</time>
      </trkpt>
      <trkpt lat="43.77691" lon="5.14335">
        <ele>319.78</ele>
        <time>2017-02-27T11:25:11Z</time>
      </trkpt>
      <trkpt lat="43.77684" lon="5.14343">
        <ele>317.37</ele>
        <time>2017-02-27T11:25:28Z</time>
      </trkpt>
      <trkpt lat="43.77689" lon="5.14353">
        <ele>318.81</ele>
        <time>2017-02-27T11:25:38Z</time>
      </trkpt>
      <trkpt lat="43.77704" lon="5.14365">
        <ele>319.3</ele>
        <time>2017-02-27T11:25:55Z</time>
      </trkpt>
      <trkpt lat="43.7771" lon="5.14372">
        <ele>319.3</ele>
        <time>2017-02-27T11:26:03Z</time>
      </trkpt>
      <trkpt lat="43.77723" lon="5.14376">
        <ele>319.78</ele>
        <time>2017-02-27T11:26:20Z</time>
      </trkpt>
      <trkpt lat="43.77734" lon="5.14374">
        <ele>321.22</ele>
        <time>2017-02-27T11:26:35Z</time>
      </trkpt>
      <trkpt lat="43.77746" lon="5.14373">
        <ele>323.14</ele>
        <time>2017-02-27T11:26:51Z</time>
      </trkpt>
      <trkpt lat="43.77758" lon="5.14369">
        <ele>325.54</ele>
        <time>2017-02-27T11:27:07Z</time>
      </trkpt>
      <trkpt lat="43.77769" lon="5.1436">
        <ele>327.47</ele>
        <time>2017-02-27T11:27:23Z</time>
      </trkpt>
      <trkpt lat="43.77782" lon="5.1436">
        <ele>328.91</ele>
        <time>2017-02-27T11:27:39Z</time>
      </trkpt>
      <trkpt lat="43.77794" lon="5.14364">
        <ele>331.31</ele>
        <time>2017-02-27T11:27:55Z</time>
      </trkpt>
      <trkpt lat="43.77798" lon="5.14378">
        <ele>332.27</ele>
        <time>2017-02-27T11:28:10Z</time>
      </trkpt>
      <trkpt lat="43.77811" lon="5.14393">
        <ele>334.68</ele>
        <time>2017-02-27T11:28:28Z</time>
      </trkpt>
      <trkpt lat="43.7782" lon="5.14386">
        <ele>336.12</ele>
        <time>2017-02-27T11:28:44Z</time>
      </trkpt>
      <trkpt lat="43.77825" lon="5.14371">
        <ele>337.08</ele>
        <time>2017-02-27T11:28:59Z</time>
      </trkpt>
      <trkpt lat="43.77835" lon="5.1435">
        <ele>338.04</ele>
        <time>2017-02-27T11:29:20Z</time>
      </trkpt>
      <trkpt lat="43.77845" lon="5.14333">
        <ele>339.48</ele>
        <time>2017-02-27T11:29:36Z</time>
      </trkpt>
      <trkpt lat="43.77858" lon="5.14318">
        <ele>340.44</ele>
        <time>2017-02-27T11:29:54Z</time>
      </trkpt>
      <trkpt lat="43.77872" lon="5.14306">
        <ele>341.89</ele>
        <time>2017-02-27T11:30:11Z</time>
      </trkpt>
      <trkpt lat="43.77885" lon="5.14299">
        <ele>342.85</ele>
        <time>2017-02-27T11:30:23Z</time>
      </trkpt>
      <trkpt lat="43.77901" lon="5.14293">
        <ele>343.81</ele>
        <time>2017-02-27T11:30:39Z</time>
      </trkpt>
      <trkpt lat="43.77914" lon="5.14283">
        <ele>344.77</ele>
        <time>2017-02-27T11:30:53Z</time>
      </trkpt>
      <trkpt lat="43.77931" lon="5.1427">
        <ele>344.77</ele>
        <time>2017-02-27T11:31:12Z</time>
      </trkpt>
      <trkpt lat="43.77942" lon="5.14264">
        <ele>346.21</ele>
        <time>2017-02-27T11:31:25Z</time>
      </trkpt>
      <trkpt lat="43.77959" lon="5.1427">
        <ele>347.17</ele>
        <time>2017-02-27T11:31:43Z</time>
      </trkpt>
      <trkpt lat="43.77974" lon="5.14287">
        <ele>344.29</ele>
        <time>2017-02-27T11:32:07Z</time>
      </trkpt>
      <trkpt lat="43.77985" lon="5.14308">
        <ele>343.33</ele>
        <time>2017-02-27T11:32:28Z</time>
      </trkpt>
      <trkpt lat="43.77987" lon="5.14313">
        <ele>342.85</ele>
        <time>2017-02-27T11:32:33Z</time>
      </trkpt>
      <trkpt lat="43.77991" lon="5.14319">
        <ele>341.89</ele>
        <time>2017-02-27T11:32:40Z</time>
      </trkpt>
      <trkpt lat="43.77999" lon="5.14345">
        <ele>343.33</ele>
        <time>2017-02-27T11:32:59Z</time>
      </trkpt>
      <trkpt lat="43.78004" lon="5.14366">
        <ele>345.73</ele>
        <time>2017-02-27T11:33:17Z</time>
      </trkpt>
      <trkpt lat="43.78012" lon="5.1439">
        <ele>348.62</ele>
        <time>2017-02-27T11:33:36Z</time>
      </trkpt>
      <trkpt lat="43.78027" lon="5.14389">
        <ele>350.54</ele>
        <time>2017-02-27T11:33:54Z</time>
      </trkpt>
      <trkpt lat="43.78038" lon="5.14371">
        <ele>351.98</ele>
        <time>2017-02-27T11:34:12Z</time>
      </trkpt>
      <trkpt lat="43.78052" lon="5.14358">
        <ele>354.38</ele>
        <time>2017-02-27T11:34:32Z</time>
      </trkpt>
      <trkpt lat="43.78061" lon="5.14352">
        <ele>355.34</ele>
        <time>2017-02-27T11:34:43Z</time>
      </trkpt>
      <trkpt lat="43.78077" lon="5.14348">
        <ele>357.27</ele>
        <time>2017-02-27T11:35:00Z</time>
      </trkpt>
      <trkpt lat="43.78084" lon="5.14348">
        <ele>357.75</ele>
        <time>2017-02-27T11:35:07Z</time>
      </trkpt>
      <trkpt lat="43.78091" lon="5.14349">
        <ele>357.75</ele>
        <time>2017-02-27T11:35:14Z</time>
      </trkpt>
      <trkpt lat="43.78108" lon="5.14347">
        <ele>358.71</ele>
        <time>2017-02-27T11:35:32Z</time>
      </trkpt>
      <trkpt lat="43.78124" lon="5.14351">
        <ele>360.63</ele>
        <time>2017-02-27T11:35:46Z</time>
      </trkpt>
      <trkpt lat="43.78139" lon="5.1436">
        <ele>362.07</ele>
        <time>2017-02-27T11:36:00Z</time>
      </trkpt>
      <trkpt lat="43.78152" lon="5.14376">
        <ele>364</ele>
        <time>2017-02-27T11:36:18Z</time>
      </trkpt>
      <trkpt lat="43.78163" lon="5.14392">
        <ele>364.96</ele>
        <time>2017-02-27T11:36:35Z</time>
      </trkpt>
      <trkpt lat="43.78171" lon="5.14397">
        <ele>364.48</ele>
        <time>2017-02-27T11:36:48Z</time>
      </trkpt>
      <trkpt lat="43.78189" lon="5.14409">
        <ele>363.52</ele>
        <time>2017-02-27T11:37:06Z</time>
      </trkpt>
      <trkpt lat="43.78197" lon="5.14414">
        <ele>363.52</ele>
        <time>2017-02-27T11:37:12Z</time>
      </trkpt>
      <trkpt lat="43.78213" lon="5.14431">
        <ele>363.04</ele>
        <time>2017-02-27T11:37:31Z</time>
      </trkpt>
      <trkpt lat="43.78225" lon="5.14444">
        <ele>363.04</ele>
        <time>2017-02-27T11:37:48Z</time>
      </trkpt>
      <trkpt lat="43.78244" lon="5.14461">
        <ele>364</ele>
        <time>2017-02-27T11:38:09Z</time>
      </trkpt>
      <trkpt lat="43.78258" lon="5.1448">
        <ele>364.48</ele>
        <time>2017-02-27T11:38:27Z</time>
      </trkpt>
      <trkpt lat="43.78266" lon="5.14489">
        <ele>364.96</ele>
        <time>2017-02-27T11:38:34Z</time>
      </trkpt>
      <trkpt lat="43.78278" lon="5.14507">
        <ele>366.88</ele>
        <time>2017-02-27T11:38:50Z</time>
      </trkpt>
      <trkpt lat="43.78289" lon="5.14524">
        <ele>368.32</ele>
        <time>2017-02-27T11:39:06Z</time>
      </trkpt>
      <trkpt lat="43.78297" lon="5.14536">
        <ele>369.28</ele>
        <time>2017-02-27T11:39:19Z</time>
      </trkpt>
      <trkpt lat="43.78303" lon="5.14556">
        <ele>371.69</ele>
        <time>2017-02-27T11:39:37Z</time>
      </trkpt>
      <trkpt lat="43.78311" lon="5.14571">
        <ele>373.61</ele>
        <time>2017-02-27T11:39:55Z</time>
      </trkpt>
      <trkpt lat="43.78318" lon="5.14593">
        <ele>375.53</ele>
        <time>2017-02-27T11:40:14Z</time>
      </trkpt>
      <trkpt lat="43.78324" lon="5.14609">
        <ele>376.49</ele>
        <time>2017-02-27T11:40:29Z</time>
      </trkpt>
      <trkpt lat="43.78334" lon="5.14634">
        <ele>377.94</ele>
        <time>2017-02-27T11:40:49Z</time>
      </trkpt>
      <trkpt lat="43.78344" lon="5.14654">
        <ele>379.38</ele>
        <time>2017-02-27T11:41:06Z</time>
      </trkpt>
      <trkpt lat="43.78359" lon="5.1466">
        <ele>379.38</ele>
        <time>2017-02-27T11:41:24Z</time>
      </trkpt>
      <trkpt lat="43.78367" lon="5.14668">
        <ele>377.94</ele>
        <time>2017-02-27T11:41:34Z</time>
      </trkpt>
      <trkpt lat="43.78375" lon="5.14684">
        <ele>375.05</ele>
        <time>2017-02-27T11:41:54Z</time>
      </trkpt>
      <trkpt lat="43.78379" lon="5.147">
        <ele>372.17</ele>
        <time>2017-02-27T11:42:11Z</time>
      </trkpt>
      <trkpt lat="43.78388" lon="5.14717">
        <ele>369.28</ele>
        <time>2017-02-27T11:42:29Z</time>
      </trkpt>
      <trkpt lat="43.78396" lon="5.14728">
        <ele>367.36</ele>
        <time>2017-02-27T11:42:46Z</time>
      </trkpt>
      <trkpt lat="43.78408" lon="5.14748">
        <ele>365.44</ele>
        <time>2017-02-27T11:43:06Z</time>
      </trkpt>
      <trkpt lat="43.78418" lon="5.14775">
        <ele>363.52</ele>
        <time>2017-02-27T11:43:25Z</time>
      </trkpt>
      <trkpt lat="43.78431" lon="5.14805">
        <ele>363.04</ele>
        <time>2017-02-27T11:43:40Z</time>
      </trkpt>
      <trkpt lat="43.78433" lon="5.14809">
        <ele>364.96</ele>
        <time>2017-02-27T11:43:43Z</time>
      </trkpt>
      <trkpt lat="43.78434" lon="5.14813">
        <ele>364</ele>
        <time>2017-02-27T11:43:46Z</time>
      </trkpt>
      <trkpt lat="43.78436" lon="5.14816">
        <ele>364</ele>
        <time>2017-02-27T11:43:49Z</time>
      </trkpt>
      <trkpt lat="43.78445" lon="5.14833">
        <ele>364.96</ele>
        <time>2017-02-27T11:44:04Z</time>
      </trkpt>
      <trkpt lat="43.78456" lon="5.14853">
        <ele>366.4</ele>
        <time>2017-02-27T11:44:21Z</time>
      </trkpt>
      <trkpt lat="43.78458" lon="5.14856">
        <ele>366.4</ele>
        <time>2017-02-27T11:44:24Z</time>
      </trkpt>
      <trkpt lat="43.78472" lon="5.14869">
        <ele>368.8</ele>
        <time>2017-02-27T11:44:42Z</time>
      </trkpt>
      <trkpt lat="43.78484" lon="5.14885">
        <ele>370.73</ele>
        <time>2017-02-27T11:44:59Z</time>
      </trkpt>
      <trkpt lat="43.78496" lon="5.14903">
        <ele>371.69</ele>
        <time>2017-02-27T11:45:15Z</time>
      </trkpt>
      <trkpt lat="43.78501" lon="5.14914">
        <ele>371.69</ele>
        <time>2017-02-27T11:45:30Z</time>
      </trkpt>
      <trkpt lat="43.78509" lon="5.14923">
        <ele>371.69</ele>
        <time>2017-02-27T11:45:48Z</time>
      </trkpt>
      <trkpt lat="43.78512" lon="5.14928">
        <ele>371.69</ele>
        <time>2017-02-27T11:45:52Z</time>
      </trkpt>
      <trkpt lat="43.78523" lon="5.1495">
        <ele>370.73</ele>
        <time>2017-02-27T11:46:12Z</time>
      </trkpt>
      <trkpt lat="43.78536" lon="5.14966">
        <ele>369.28</ele>
        <time>2017-02-27T11:46:32Z</time>
      </trkpt>
      <trkpt lat="43.78553" lon="5.14982">
        <ele>369.28</ele>
        <time>2017-02-27T11:46:51Z</time>
      </trkpt>
      <trkpt lat="43.78567" lon="5.14995">
        <ele>370.24</ele>
        <time>2017-02-27T11:47:07Z</time>
      </trkpt>
      <trkpt lat="43.78567" lon="5.14991">
        <ele>371.69</ele>
        <time>2017-02-27T11:47:29Z</time>
      </trkpt>
      <trkpt lat="43.78565" lon="5.14987">
        <ele>371.69</ele>
        <time>2017-02-27T11:47:41Z</time>
      </trkpt>
      <trkpt lat="43.78567" lon="5.14982">
        <ele>371.69</ele>
        <time>2017-02-27T11:47:58Z</time>
      </trkpt>
      <trkpt lat="43.78565" lon="5.14972">
        <ele>370.24</ele>
        <time>2017-02-27T11:48:07Z</time>
      </trkpt>
      <trkpt lat="43.78567" lon="5.14967">
        <ele>370.24</ele>
        <time>2017-02-27T11:48:25Z</time>
      </trkpt>
      <trkpt lat="43.78577" lon="5.14965">
        <ele>369.76</ele>
        <time>2017-02-27T11:48:40Z</time>
      </trkpt>
      <trkpt lat="43.78588" lon="5.14967">
        <ele>368.8</ele>
        <time>2017-02-27T11:48:56Z</time>
      </trkpt>
      <trkpt lat="43.7861" lon="5.14972">
        <ele>367.36</ele>
        <time>2017-02-27T11:49:17Z</time>
      </trkpt>
      <trkpt lat="43.78616" lon="5.14973">
        <ele>367.36</ele>
        <time>2017-02-27T11:49:22Z</time>
      </trkpt>
      <trkpt lat="43.78638" lon="5.14974">
        <ele>365.92</ele>
        <time>2017-02-27T11:49:45Z</time>
      </trkpt>
      <trkpt lat="43.78645" lon="5.14965">
        <ele>364.48</ele>
        <time>2017-02-27T11:50:03Z</time>
      </trkpt>
      <trkpt lat="43.78638" lon="5.14959">
        <ele>364</ele>
        <time>2017-02-27T11:50:19Z</time>
      </trkpt>
      <trkpt lat="43.78623" lon="5.1495">
        <ele>362.07</ele>
        <time>2017-02-27T11:50:38Z</time>
      </trkpt>
      <trkpt lat="43.78622" lon="5.14949">
        <ele>362.07</ele>
        <time>2017-02-27T11:50:39Z</time>
      </trkpt>
      <trkpt lat="43.78606" lon="5.1494">
        <ele>360.15</ele>
        <time>2017-02-27T11:50:57Z</time>
      </trkpt>
      <trkpt lat="43.78588" lon="5.1493">
        <ele>357.75</ele>
        <time>2017-02-27T11:51:19Z</time>
      </trkpt>
      <trkpt lat="43.78575" lon="5.14919">
        <ele>356.31</ele>
        <time>2017-02-27T11:51:36Z</time>
      </trkpt>
      <trkpt lat="43.7856" lon="5.14906">
        <ele>354.86</ele>
        <time>2017-02-27T11:51:57Z</time>
      </trkpt>
      <trkpt lat="43.78549" lon="5.14891">
        <ele>351.98</ele>
        <time>2017-02-27T11:52:14Z</time>
      </trkpt>
      <trkpt lat="43.78539" lon="5.14875">
        <ele>350.54</ele>
        <time>2017-02-27T11:52:34Z</time>
      </trkpt>
      <trkpt lat="43.7853" lon="5.14852">
        <ele>348.13</ele>
        <time>2017-02-27T11:52:57Z</time>
      </trkpt>
      <trkpt lat="43.78525" lon="5.14824">
        <ele>345.73</ele>
        <time>2017-02-27T11:53:20Z</time>
      </trkpt>
      <trkpt lat="43.78522" lon="5.148">
        <ele>343.33</ele>
        <time>2017-02-27T11:53:40Z</time>
      </trkpt>
      <trkpt lat="43.78519" lon="5.14778">
        <ele>340.92</ele>
        <time>2017-02-27T11:53:59Z</time>
      </trkpt>
      <trkpt lat="43.78505" lon="5.14757">
        <ele>338.52</ele>
        <time>2017-02-27T11:54:21Z</time>
      </trkpt>
      <trkpt lat="43.78488" lon="5.14747">
        <ele>336.6</ele>
        <time>2017-02-27T11:54:41Z</time>
      </trkpt>
      <trkpt lat="43.78484" lon="5.14743">
        <ele>335.64</ele>
        <time>2017-02-27T11:54:46Z</time>
      </trkpt>
      <trkpt lat="43.78475" lon="5.14726">
        <ele>333.71</ele>
        <time>2017-02-27T11:55:03Z</time>
      </trkpt>
      <trkpt lat="43.78471" lon="5.14707">
        <ele>331.79</ele>
        <time>2017-02-27T11:55:22Z</time>
      </trkpt>
      <trkpt lat="43.7847" lon="5.1468">
        <ele>329.87</ele>
        <time>2017-02-27T11:55:42Z</time>
      </trkpt>
      <trkpt lat="43.7848" lon="5.14656">
        <ele>327.95</ele>
        <time>2017-02-27T11:55:59Z</time>
      </trkpt>
      <trkpt lat="43.78492" lon="5.1464">
        <ele>326.02</ele>
        <time>2017-02-27T11:56:16Z</time>
      </trkpt>
      <trkpt lat="43.78499" lon="5.14618">
        <ele>323.62</ele>
        <time>2017-02-27T11:56:34Z</time>
      </trkpt>
      <trkpt lat="43.7851" lon="5.146">
        <ele>321.22</ele>
        <time>2017-02-27T11:56:55Z</time>
      </trkpt>
      <trkpt lat="43.78514" lon="5.14578">
        <ele>319.3</ele>
        <time>2017-02-27T11:57:14Z</time>
      </trkpt>
      <trkpt lat="43.78507" lon="5.14563">
        <ele>317.37</ele>
        <time>2017-02-27T11:57:32Z</time>
      </trkpt>
      <trkpt lat="43.78501" lon="5.14544">
        <ele>315.45</ele>
        <time>2017-02-27T11:57:51Z</time>
      </trkpt>
      <trkpt lat="43.78498" lon="5.14513">
        <ele>313.05</ele>
        <time>2017-02-27T11:58:12Z</time>
      </trkpt>
      <trkpt lat="43.78496" lon="5.14486">
        <ele>311.6</ele>
        <time>2017-02-27T11:58:30Z</time>
      </trkpt>
      <trkpt lat="43.7849" lon="5.14458">
        <ele>311.12</ele>
        <time>2017-02-27T11:58:49Z</time>
      </trkpt>
      <trkpt lat="43.78483" lon="5.14429">
        <ele>309.68</ele>
        <time>2017-02-27T11:59:10Z</time>
      </trkpt>
      <trkpt lat="43.78474" lon="5.14406">
        <ele>309.2</ele>
        <time>2017-02-27T11:59:28Z</time>
      </trkpt>
      <trkpt lat="43.7846" lon="5.14382">
        <ele>308.72</ele>
        <time>2017-02-27T11:59:50Z</time>
      </trkpt>
      <trkpt lat="43.78458" lon="5.14379">
        <ele>308.24</ele>
        <time>2017-02-27T11:59:53Z</time>
      </trkpt>
      <trkpt lat="43.78434" lon="5.14359">
        <ele>306.8</ele>
        <time>2017-02-27T12:00:17Z</time>
      </trkpt>
      <trkpt lat="43.78417" lon="5.14343">
        <ele>306.8</ele>
        <time>2017-02-27T12:00:36Z</time>
      </trkpt>
      <trkpt lat="43.78401" lon="5.14324">
        <ele>305.84</ele>
        <time>2017-02-27T12:00:57Z</time>
      </trkpt>
      <trkpt lat="43.78389" lon="5.14313">
        <ele>305.36</ele>
        <time>2017-02-27T12:01:10Z</time>
      </trkpt>
      <trkpt lat="43.78373" lon="5.14318">
        <ele>303.91</ele>
        <time>2017-02-27T12:01:27Z</time>
      </trkpt>
      <trkpt lat="43.78355" lon="5.14323">
        <ele>301.99</ele>
        <time>2017-02-27T12:01:46Z</time>
      </trkpt>
      <trkpt lat="43.78345" lon="5.1431">
        <ele>301.03</ele>
        <time>2017-02-27T12:02:04Z</time>
      </trkpt>
      <trkpt lat="43.78338" lon="5.14288">
        <ele>300.07</ele>
        <time>2017-02-27T12:02:24Z</time>
      </trkpt>
      <trkpt lat="43.78338" lon="5.1428">
        <ele>299.59</ele>
        <time>2017-02-27T12:02:46Z</time>
      </trkpt>
      <trkpt lat="43.78331" lon="5.14271">
        <ele>299.59</ele>
        <time>2017-02-27T12:03:04Z</time>
      </trkpt>
      <trkpt lat="43.78317" lon="5.1426">
        <ele>298.63</ele>
        <time>2017-02-27T12:03:20Z</time>
      </trkpt>
      <trkpt lat="43.78305" lon="5.14251">
        <ele>297.67</ele>
        <time>2017-02-27T12:03:36Z</time>
      </trkpt>
      <trkpt lat="43.78291" lon="5.14241">
        <ele>296.7</ele>
        <time>2017-02-27T12:03:53Z</time>
      </trkpt>
      <trkpt lat="43.78275" lon="5.14235">
        <ele>296.22</ele>
        <time>2017-02-27T12:04:10Z</time>
      </trkpt>
      <trkpt lat="43.78264" lon="5.14231">
        <ele>294.3</ele>
        <time>2017-02-27T12:04:24Z</time>
      </trkpt>
      <trkpt lat="43.78259" lon="5.14223">
        <ele>293.82</ele>
        <time>2017-02-27T12:04:40Z</time>
      </trkpt>
      <trkpt lat="43.78258" lon="5.14229">
        <ele>293.34</ele>
        <time>2017-02-27T12:04:56Z</time>
      </trkpt>
      <trkpt lat="43.78255" lon="5.14238">
        <ele>293.34</ele>
        <time>2017-02-27T12:05:27Z</time>
      </trkpt>
      <trkpt lat="43.7826" lon="5.14219">
        <ele>292.86</ele>
        <time>2017-02-27T12:05:39Z</time>
      </trkpt>
      <trkpt lat="43.78257" lon="5.14209">
        <ele>292.86</ele>
        <time>2017-02-27T12:05:54Z</time>
      </trkpt>
      <trkpt lat="43.78256" lon="5.14205">
        <ele>292.86</ele>
        <time>2017-02-27T12:06:15Z</time>
      </trkpt>
      <trkpt lat="43.78257" lon="5.14204">
        <ele>293.34</ele>
        <time>2017-02-27T12:06:33Z</time>
      </trkpt>
      <trkpt lat="43.78258" lon="5.14201">
        <ele>293.34</ele>
        <time>2017-02-27T12:06:51Z</time>
      </trkpt>
      <trkpt lat="43.78258" lon="5.142">
        <ele>293.34</ele>
        <time>2017-02-27T12:07:16Z</time>
      </trkpt>
      <trkpt lat="43.78254" lon="5.14201">
        <ele>293.34</ele>
        <time>2017-02-27T12:07:42Z</time>
      </trkpt>
      <trkpt lat="43.78259" lon="5.14208">
        <ele>293.82</ele>
        <time>2017-02-27T12:07:59Z</time>
      </trkpt>
      <trkpt lat="43.78254" lon="5.14207">
        <ele>293.82</ele>
        <time>2017-02-27T12:08:07Z</time>
      </trkpt>
      <trkpt lat="43.78243" lon="5.14191">
        <ele>292.86</ele>
        <time>2017-02-27T12:08:27Z</time>
      </trkpt>
      <trkpt lat="43.78233" lon="5.14163">
        <ele>291.9</ele>
        <time>2017-02-27T12:08:47Z</time>
      </trkpt>
      <trkpt lat="43.78215" lon="5.14141">
        <ele>291.42</ele>
        <time>2017-02-27T12:09:08Z</time>
      </trkpt>
      <trkpt lat="43.78207" lon="5.14132">
        <ele>290.94</ele>
        <time>2017-02-27T12:09:30Z</time>
      </trkpt>
      <trkpt lat="43.78188" lon="5.14114">
        <ele>290.94</ele>
        <time>2017-02-27T12:09:52Z</time>
      </trkpt>
      <trkpt lat="43.7818" lon="5.14088">
        <ele>290.94</ele>
        <time>2017-02-27T12:10:12Z</time>
      </trkpt>
      <trkpt lat="43.78178" lon="5.14052">
        <ele>289.01</ele>
        <time>2017-02-27T12:10:35Z</time>
      </trkpt>
      <trkpt lat="43.78166" lon="5.1404">
        <ele>286.61</ele>
        <time>2017-02-27T12:10:56Z</time>
      </trkpt>
      <trkpt lat="43.78144" lon="5.14033">
        <ele>285.17</ele>
        <time>2017-02-27T12:11:17Z</time>
      </trkpt>
      <trkpt lat="43.78128" lon="5.14008">
        <ele>284.21</ele>
        <time>2017-02-27T12:11:40Z</time>
      </trkpt>
      <trkpt lat="43.78113" lon="5.13973">
        <ele>283.73</ele>
        <time>2017-02-27T12:12:05Z</time>
      </trkpt>
      <trkpt lat="43.78115" lon="5.13944">
        <ele>281.8</ele>
        <time>2017-02-27T12:12:25Z</time>
      </trkpt>
      <trkpt lat="43.7813" lon="5.13921">
        <ele>280.84</ele>
        <time>2017-02-27T12:12:44Z</time>
      </trkpt>
      <trkpt lat="43.78145" lon="5.13907">
        <ele>279.88</ele>
        <time>2017-02-27T12:13:02Z</time>
      </trkpt>
      <trkpt lat="43.78157" lon="5.13882">
        <ele>278.44</ele>
        <time>2017-02-27T12:13:23Z</time>
      </trkpt>
      <trkpt lat="43.78167" lon="5.13856">
        <ele>277.48</ele>
        <time>2017-02-27T12:13:46Z</time>
      </trkpt>
      <trkpt lat="43.7818" lon="5.13846">
        <ele>279.88</ele>
        <time>2017-02-27T12:14:03Z</time>
      </trkpt>
      <trkpt lat="43.78192" lon="5.13809">
        <ele>281.8</ele>
        <time>2017-02-27T12:14:28Z</time>
      </trkpt>
      <trkpt lat="43.78199" lon="5.13777">
        <ele>283.25</ele>
        <time>2017-02-27T12:14:50Z</time>
      </trkpt>
      <trkpt lat="43.7821" lon="5.13756">
        <ele>284.21</ele>
        <time>2017-02-27T12:15:14Z</time>
      </trkpt>
      <trkpt lat="43.78217" lon="5.1375">
        <ele>285.65</ele>
        <time>2017-02-27T12:15:32Z</time>
      </trkpt>
      <trkpt lat="43.78234" lon="5.13739">
        <ele>286.61</ele>
        <time>2017-02-27T12:15:51Z</time>
      </trkpt>
      <trkpt lat="43.78243" lon="5.13721">
        <ele>288.53</ele>
        <time>2017-02-27T12:16:10Z</time>
      </trkpt>
      <trkpt lat="43.78238" lon="5.13713">
        <ele>290.94</ele>
        <time>2017-02-27T12:16:28Z</time>
      </trkpt>
      <trkpt lat="43.78225" lon="5.13729">
        <ele>293.34</ele>
        <time>2017-02-27T12:16:50Z</time>
      </trkpt>
      <trkpt lat="43.7823" lon="5.13704">
        <ele>295.74</ele>
        <time>2017-02-27T12:17:09Z</time>
      </trkpt>
      <trkpt lat="43.78234" lon="5.13682">
        <ele>298.63</ele>
        <time>2017-02-27T12:17:35Z</time>
      </trkpt>
      <trkpt lat="43.78234" lon="5.13663">
        <ele>301.51</ele>
        <time>2017-02-27T12:17:58Z</time>
      </trkpt>
      <trkpt lat="43.78235" lon="5.13645">
        <ele>303.43</ele>
        <time>2017-02-27T12:18:18Z</time>
      </trkpt>
      <trkpt lat="43.78238" lon="5.13621">
        <ele>306.32</ele>
        <time>2017-02-27T12:18:41Z</time>
      </trkpt>
      <trkpt lat="43.78241" lon="5.136">
        <ele>307.76</ele>
        <time>2017-02-27T12:19:02Z</time>
      </trkpt>
      <trkpt lat="43.78244" lon="5.13581">
        <ele>309.68</ele>
        <time>2017-02-27T12:19:20Z</time>
      </trkpt>
      <trkpt lat="43.78247" lon="5.13582">
        <ele>310.16</ele>
        <time>2017-02-27T12:19:48Z</time>
      </trkpt>
      <trkpt lat="43.78259" lon="5.13594">
        <ele>311.6</ele>
        <time>2017-02-27T12:20:04Z</time>
      </trkpt>
      <trkpt lat="43.7827" lon="5.13611">
        <ele>313.05</ele>
        <time>2017-02-27T12:20:29Z</time>
      </trkpt>
      <trkpt lat="43.78278" lon="5.13635">
        <ele>315.45</ele>
        <time>2017-02-27T12:20:51Z</time>
      </trkpt>
      <trkpt lat="43.78288" lon="5.1365">
        <ele>316.41</ele>
        <time>2017-02-27T12:21:11Z</time>
      </trkpt>
      <trkpt lat="43.78295" lon="5.13667">
        <ele>319.78</ele>
        <time>2017-02-27T12:21:31Z</time>
      </trkpt>
      <trkpt lat="43.78301" lon="5.13676">
        <ele>321.7</ele>
        <time>2017-02-27T12:21:51Z</time>
      </trkpt>
      <trkpt lat="43.78299" lon="5.13647">
        <ele>324.1</ele>
        <time>2017-02-27T12:22:12Z</time>
      </trkpt>
      <trkpt lat="43.78299" lon="5.13624">
        <ele>326.5</ele>
        <time>2017-02-27T12:22:35Z</time>
      </trkpt>
      <trkpt lat="43.78294" lon="5.13594">
        <ele>329.39</ele>
        <time>2017-02-27T12:23:02Z</time>
      </trkpt>
      <trkpt lat="43.78289" lon="5.13573">
        <ele>331.79</ele>
        <time>2017-02-27T12:23:22Z</time>
      </trkpt>
      <trkpt lat="43.78283" lon="5.13549">
        <ele>334.2</ele>
        <time>2017-02-27T12:23:41Z</time>
      </trkpt>
      <trkpt lat="43.78278" lon="5.13532">
        <ele>335.16</ele>
        <time>2017-02-27T12:23:58Z</time>
      </trkpt>
      <trkpt lat="43.78277" lon="5.13514">
        <ele>337.56</ele>
        <time>2017-02-27T12:24:18Z</time>
      </trkpt>
      <trkpt lat="43.78272" lon="5.13492">
        <ele>338.52</ele>
        <time>2017-02-27T12:24:36Z</time>
      </trkpt>
      <trkpt lat="43.78271" lon="5.13478">
        <ele>341.89</ele>
        <time>2017-02-27T12:24:53Z</time>
      </trkpt>
      <trkpt lat="43.78259" lon="5.13465">
        <ele>343.33</ele>
        <time>2017-02-27T12:25:14Z</time>
      </trkpt>
      <trkpt lat="43.78257" lon="5.13453">
        <ele>344.77</ele>
        <time>2017-02-27T12:25:32Z</time>
      </trkpt>
      <trkpt lat="43.7827" lon="5.13466">
        <ele>346.21</ele>
        <time>2017-02-27T12:25:53Z</time>
      </trkpt>
      <trkpt lat="43.78283" lon="5.1348">
        <ele>347.65</ele>
        <time>2017-02-27T12:26:13Z</time>
      </trkpt>
      <trkpt lat="43.78281" lon="5.13465">
        <ele>349.58</ele>
        <time>2017-02-27T12:26:30Z</time>
      </trkpt>
      <trkpt lat="43.78273" lon="5.13447">
        <ele>351.02</ele>
        <time>2017-02-27T12:26:47Z</time>
      </trkpt>
      <trkpt lat="43.78264" lon="5.13424">
        <ele>352.94</ele>
        <time>2017-02-27T12:27:07Z</time>
      </trkpt>
      <trkpt lat="43.78263" lon="5.13418">
        <ele>353.42</ele>
        <time>2017-02-27T12:27:25Z</time>
      </trkpt>
      <trkpt lat="43.78264" lon="5.13418">
        <ele>354.38</ele>
        <time>2017-02-27T12:27:52Z</time>
      </trkpt>
      <trkpt lat="43.78262" lon="5.13416">
        <ele>354.38</ele>
        <time>2017-02-27T12:28:21Z</time>
      </trkpt>
      <trkpt lat="43.78262" lon="5.13404">
        <ele>354.38</ele>
        <time>2017-02-27T12:28:38Z</time>
      </trkpt>
      <trkpt lat="43.78272" lon="5.13391">
        <ele>354.86</ele>
        <time>2017-02-27T12:28:55Z</time>
      </trkpt>
      <trkpt lat="43.7829" lon="5.13387">
        <ele>355.83</ele>
        <time>2017-02-27T12:29:15Z</time>
      </trkpt>
      <trkpt lat="43.78308" lon="5.13374">
        <ele>355.83</ele>
        <time>2017-02-27T12:29:35Z</time>
      </trkpt>
      <trkpt lat="43.78327" lon="5.13354">
        <ele>355.83</ele>
        <time>2017-02-27T12:29:59Z</time>
      </trkpt>
      <trkpt lat="43.78343" lon="5.13342">
        <ele>355.83</ele>
        <time>2017-02-27T12:30:19Z</time>
      </trkpt>
      <trkpt lat="43.78361" lon="5.13323">
        <ele>355.83</ele>
        <time>2017-02-27T12:30:39Z</time>
      </trkpt>
      <trkpt lat="43.78379" lon="5.13307">
        <ele>355.83</ele>
        <time>2017-02-27T12:31:02Z</time>
      </trkpt>
      <trkpt lat="43.78386" lon="5.13301">
        <ele>355.83</ele>
        <time>2017-02-27T12:31:19Z</time>
      </trkpt>
      <trkpt lat="43.78387" lon="5.13301">
        <ele>356.31</ele>
        <time>2017-02-27T12:31:45Z</time>
      </trkpt>
      <trkpt lat="43.78385" lon="5.13298">
        <ele>356.31</ele>
        <time>2017-02-27T12:32:15Z</time>
      </trkpt>
      <trkpt lat="43.78385" lon="5.13298">
        <ele>356.31</ele>
        <time>2017-02-27T12:32:46Z</time>
      </trkpt>
      <trkpt lat="43.78387" lon="5.13299">
        <ele>356.31</ele>
        <time>2017-02-27T12:33:20Z</time>
      </trkpt>
      <trkpt lat="43.78386" lon="5.13298">
        <ele>356.79</ele>
        <time>2017-02-27T12:33:50Z</time>
      </trkpt>
      <trkpt lat="43.78391" lon="5.13294">
        <ele>357.27</ele>
        <time>2017-02-27T12:34:12Z</time>
      </trkpt>
      <trkpt lat="43.78401" lon="5.13285">
        <ele>357.27</ele>
        <time>2017-02-27T12:34:24Z</time>
      </trkpt>
      <trkpt lat="43.78416" lon="5.13264">
        <ele>357.27</ele>
        <time>2017-02-27T12:34:45Z</time>
      </trkpt>
      <trkpt lat="43.78433" lon="5.13247">
        <ele>355.83</ele>
        <time>2017-02-27T12:35:08Z</time>
      </trkpt>
      <trkpt lat="43.78451" lon="5.13229">
        <ele>355.83</ele>
        <time>2017-02-27T12:35:33Z</time>
      </trkpt>
      <trkpt lat="43.78465" lon="5.13211">
        <ele>355.34</ele>
        <time>2017-02-27T12:35:54Z</time>
      </trkpt>
      <trkpt lat="43.78487" lon="5.13194">
        <ele>354.86</ele>
        <time>2017-02-27T12:36:17Z</time>
      </trkpt>
      <trkpt lat="43.78506" lon="5.13184">
        <ele>356.31</ele>
        <time>2017-02-27T12:36:37Z</time>
      </trkpt>
      <trkpt lat="43.78525" lon="5.1317">
        <ele>357.75</ele>
        <time>2017-02-27T12:36:59Z</time>
      </trkpt>
      <trkpt lat="43.78541" lon="5.1315">
        <ele>357.75</ele>
        <time>2017-02-27T12:37:21Z</time>
      </trkpt>
      <trkpt lat="43.78556" lon="5.13128">
        <ele>358.71</ele>
        <time>2017-02-27T12:37:43Z</time>
      </trkpt>
      <trkpt lat="43.78563" lon="5.13116">
        <ele>359.19</ele>
        <time>2017-02-27T12:38:04Z</time>
      </trkpt>
      <trkpt lat="43.78564" lon="5.13121">
        <ele>359.19</ele>
        <time>2017-02-27T12:38:30Z</time>
      </trkpt>
      <trkpt lat="43.78565" lon="5.13121">
        <ele>359.67</ele>
        <time>2017-02-27T12:38:59Z</time>
      </trkpt>
      <trkpt lat="43.78564" lon="5.13115">
        <ele>359.67</ele>
        <time>2017-02-27T12:39:27Z</time>
      </trkpt>
      <trkpt lat="43.78566" lon="5.13118">
        <ele>359.67</ele>
        <time>2017-02-27T12:39:55Z</time>
      </trkpt>
      <trkpt lat="43.78566" lon="5.13117">
        <ele>359.67</ele>
        <time>2017-02-27T12:40:16Z</time>
      </trkpt>
      <trkpt lat="43.78565" lon="5.13103">
        <ele>359.67</ele>
        <time>2017-02-27T12:40:34Z</time>
      </trkpt>
      <trkpt lat="43.78561" lon="5.13095">
        <ele>359.67</ele>
        <time>2017-02-27T12:40:55Z</time>
      </trkpt>
      <trkpt lat="43.78557" lon="5.13099">
        <ele>359.67</ele>
        <time>2017-02-27T12:41:13Z</time>
      </trkpt>
      <trkpt lat="43.7856" lon="5.131">
        <ele>358.23</ele>
        <time>2017-02-27T12:41:43Z</time>
      </trkpt>
      <trkpt lat="43.78561" lon="5.13108">
        <ele>358.23</ele>
        <time>2017-02-27T12:42:15Z</time>
      </trkpt>
      <trkpt lat="43.78567" lon="5.13107">
        <ele>358.23</ele>
        <time>2017-02-27T12:42:46Z</time>
      </trkpt>
      <trkpt lat="43.78564" lon="5.13104">
        <ele>358.23</ele>
        <time>2017-02-27T12:43:18Z</time>
      </trkpt>
      <trkpt lat="43.78562" lon="5.13103">
        <ele>357.27</ele>
        <time>2017-02-27T12:43:51Z</time>
      </trkpt>
      <trkpt lat="43.78561" lon="5.13103">
        <ele>357.27</ele>
        <time>2017-02-27T12:44:24Z</time>
      </trkpt>
      <trkpt lat="43.7856" lon="5.13109">
        <ele>357.27</ele>
        <time>2017-02-27T12:45:05Z</time>
      </trkpt>
      <trkpt lat="43.78559" lon="5.13106">
        <ele>357.27</ele>
        <time>2017-02-27T12:45:42Z</time>
      </trkpt>
      <trkpt lat="43.78561" lon="5.13104">
        <ele>357.27</ele>
        <time>2017-02-27T12:46:23Z</time>
      </trkpt>
      <trkpt lat="43.7856" lon="5.13102">
        <ele>357.27</ele>
        <time>2017-02-27T12:46:52Z</time>
      </trkpt>
      <trkpt lat="43.78559" lon="5.13104">
        <ele>358.71</ele>
        <time>2017-02-27T12:47:17Z</time>
      </trkpt>
      <trkpt lat="43.78562" lon="5.13103">
        <ele>357.75</ele>
        <time>2017-02-27T12:47:50Z</time>
      </trkpt>
      <trkpt lat="43.78564" lon="5.13108">
        <ele>357.27</ele>
        <time>2017-02-27T12:48:26Z</time>
      </trkpt>
      <trkpt lat="43.78563" lon="5.13108">
        <ele>357.27</ele>
        <time>2017-02-27T12:48:58Z</time>
      </trkpt>
      <trkpt lat="43.78562" lon="5.13106">
        <ele>357.27</ele>
        <time>2017-02-27T12:49:36Z</time>
      </trkpt>
      <trkpt lat="43.78563" lon="5.13108">
        <ele>357.27</ele>
        <time>2017-02-27T12:50:16Z</time>
      </trkpt>
      <trkpt lat="43.78562" lon="5.13108">
        <ele>357.27</ele>
        <time>2017-02-27T12:50:51Z</time>
      </trkpt>
      <trkpt lat="43.78564" lon="5.13103">
        <ele>358.71</ele>
        <time>2017-02-27T12:51:01Z</time>
      </trkpt>
      <trkpt lat="43.78564" lon="5.13102">
        <ele>357.27</ele>
        <time>2017-02-27T12:51:04Z</time>
      </trkpt>
    </trkseg>
  </trk>
</gpx>